Wetterdaten: Mittwoch, 30.07.2014
Datum Zeit Temp. Aussen +5cm Feuchte Auss Luftdruck Regen Sonnenschein Regendauer UV Solar Windben
30.07.2014 00:00 20,1 C 18,9 C 98 % 1010,0 hPa 0,0 l/m 0 min 0 min 0,0 UV-I 0 W/m 12,6 km/h (3 Bft)
30.07.2014 00:02 20,2 C 18,9 C 98 % 1010,1 hPa 0,0 l/m 0 min 0 min 0,0 UV-I 0 W/m 14,6 km/h (3 Bft)
30.07.2014 00:05 20,2 C 18,9 C 98 % 1010,1 hPa 0,0 l/m 0 min 0 min 0,0 UV-I 0 W/m 10,5 km/h (2 Bft)
30.07.2014 00:06 20,2 C 18,9 C 98 % 1010,1 hPa 0,0 l/m 0 min 0 min 0,0 UV-I 0 W/m 10,5 km/h (2 Bft)
30.07.2014 00:08 20,2 C 18,9 C 98 % 1010,0 hPa 0,0 l/m 0 min 0 min 0,0 UV-I 0 W/m 12,6 km/h (3 Bft)
30.07.2014 00:10 20,1 C 18,9 C 98 % 1010,0 hPa 0,0 l/m 0 min 0 min 0,0 UV-I 0 W/m 14,6 km/h (3 Bft)
30.07.2014 00:12 20,1 C 18,9 C 98 % 1010,0 hPa 0,0 l/m 0 min 0 min 0,0 UV-I 0 W/m 10,5 km/h (2 Bft)
30.07.2014 00:14 20,1 C 18,9 C 98 % 1010,0 hPa 0,0 l/m 0 min 0 min 0,0 UV-I 0 W/m 12,6 km/h (3 Bft)
30.07.2014 00:16 20,1 C 18,9 C 98 % 1010,0 hPa 0,0 l/m 0 min 0 min 0,0 UV-I 0 W/m 12,6 km/h (3 Bft)
30.07.2014 00:18 20,1 C 18,9 C 98 % 1010,0 hPa 0,0 l/m 0 min 0 min 0,0 UV-I 0 W/m 12,6 km/h (3 Bft)
30.07.2014 00:20 20,0 C 18,3 C 98 % 1010,0 hPa 0,0 l/m 0 min 0 min 0,0 UV-I 0 W/m 10,5 km/h (2 Bft)
30.07.2014 00:22 20,0 C 18,3 C 98 % 1010,0 hPa 0,0 l/m 0 min 0 min 0,0 UV-I 0 W/m 10,5 km/h (2 Bft)
30.07.2014 00:24 19,9 C 18,3 C 98 % 1010,0 hPa 0,0 l/m 0 min 0 min 0,0 UV-I 0 W/m 12,6 km/h (3 Bft)
30.07.2014 00:26 19,9 C 18,3 C 98 % 1010,0 hPa 0,0 l/m 0 min 0 min 0,0 UV-I 0 W/m 16,7 km/h (3 Bft)
30.07.2014 00:28 19,9 C 18,3 C 98 % 1010,0 hPa 0,0 l/m 0 min 0 min 0,0 UV-I 0 W/m 12,6 km/h (3 Bft)
30.07.2014 00:30 19,9 C 18,3 C 98 % 1010,0 hPa 0,0 l/m 0 min 0 min 0,0 UV-I 0 W/m 12,6 km/h (3 Bft)
30.07.2014 00:32 19,9 C 18,3 C 97 % 1010,0 hPa 0,0 l/m 0 min 0 min 0,0 UV-I 0 W/m 12,6 km/h (3 Bft)
30.07.2014 00:34 19,8 C 18,3 C 97 % 1010,0 hPa 0,0 l/m 0 min 0 min 0,0 UV-I 0 W/m 18,8 km/h (3 Bft)
30.07.2014 00:36 19,8 C 18,3 C 97 % 1010,0 hPa 0,0 l/m 0 min 0 min 0,0 UV-I 0 W/m 10,5 km/h (2 Bft)
30.07.2014 00:38 19,8 C 18,3 C 97 % 1010,0 hPa 0,0 l/m 0 min 0 min 0,0 UV-I 0 W/m 12,6 km/h (3 Bft)
30.07.2014 00:40 19,8 C 18,3 C 97 % 1010,0 hPa 0,0 l/m 0 min 0 min 0,0 UV-I 0 W/m 14,6 km/h (3 Bft)
30.07.2014 00:42 19,7 C 18,3 C 97 % 1010,0 hPa 0,0 l/m 0 min 0 min 0,0 UV-I 0 W/m 14,6 km/h (3 Bft)
30.07.2014 00:44 19,7 C 18,3 C 97 % 1010,0 hPa 0,0 l/m 0 min 0 min 0,0 UV-I 0 W/m 12,6 km/h (3 Bft)
30.07.2014 00:46 19,7 C 18,3 C 97 % 1010,0 hPa 0,0 l/m 0 min 0 min 0,0 UV-I 0 W/m 12,6 km/h (3 Bft)
30.07.2014 00:48 19,6 C 18,3 C 97 % 1010,0 hPa 0,0 l/m 0 min 0 min 0,0 UV-I 0 W/m 10,5 km/h (2 Bft)
30.07.2014 00:50 19,6 C 18,3 C 97 % 1010,0 hPa 0,0 l/m 0 min 0 min 0,0 UV-I 0 W/m 12,6 km/h (3 Bft)
30.07.2014 00:52 19,6 C 17,8 C 97 % 1010,0 hPa 0,0 l/m 0 min 0 min 0,0 UV-I 0 W/m 10,5 km/h (2 Bft)
30.07.2014 00:54 19,6 C 17,8 C 97 % 1010,0 hPa 0,0 l/m 0 min 0 min 0,0 UV-I 0 W/m 10,5 km/h (2 Bft)
30.07.2014 00:56 19,5 C 17,8 C 97 % 1009,9 hPa 0,0 l/m 0 min 0 min 0,0 UV-I 0 W/m 8,4 km/h (2 Bft)
30.07.2014 00:58 19,4 C 17,8 C 97 % 1009,9 hPa 0,0 l/m 0 min 0 min 0,0 UV-I 0 W/m 10,5 km/h (2 Bft)
30.07.2014 01:00 19,4 C 17,8 C 97 % 1010,0 hPa 0,0 l/m 0 min 0 min 0,0 UV-I 0 W/m 10,5 km/h (2 Bft)
30.07.2014 01:02 19,4 C 17,8 C 97 % 1010,0 hPa 0,0 l/m 0 min 0 min 0,0 UV-I 0 W/m 10,5 km/h (2 Bft)
30.07.2014 01:04 19,4 C 17,8 C 97 % 1010,0 hPa 0,0 l/m 0 min 0 min 0,0 UV-I 0 W/m 10,5 km/h (2 Bft)
30.07.2014 01:06 19,4 C 17,8 C 97 % 1010,1 hPa 0,0 l/m 0 min 0 min 0,0 UV-I 0 W/m 20,9 km/h (4 Bft)
30.07.2014 01:08 19,4 C 18,3 C 97 % 1010,0 hPa 0,0 l/m 0 min 0 min 0,0 UV-I 0 W/m 18,8 km/h (3 Bft)
30.07.2014 01:10 19,4 C 18,3 C 97 % 1010,0 hPa 0,0 l/m 0 min 0 min 0,0 UV-I 0 W/m 18,8 km/h (3 Bft)
30.07.2014 01:12 19,4 C 18,3 C 97 % 1010,0 hPa 0,0 l/m 0 min 0 min 0,0 UV-I 0 W/m 16,7 km/h (3 Bft)
30.07.2014 01:14 19,4 C 17,8 C 97 % 1010,1 hPa 0,0 l/m 0 min 0 min 0,0 UV-I 0 W/m 18,8 km/h (3 Bft)
30.07.2014 01:16 19,4 C 17,8 C 97 % 1010,0 hPa 0,0 l/m 0 min 0 min 0,0 UV-I 0 W/m 12,6 km/h (3 Bft)
30.07.2014 01:18 19,3 C 17,8 C 97 % 1010,0 hPa 0,0 l/m 0 min 0 min 0,0 UV-I 0 W/m 12,6 km/h (3 Bft)
30.07.2014 01:20 19,4 C 18,3 C 97 % 1010,1 hPa 0,0 l/m 0 min 0 min 0,0 UV-I 0 W/m 14,6 km/h (3 Bft)
30.07.2014 01:22 19,4 C 18,3 C 97 % 1010,1 hPa 0,0 l/m 0 min 0 min 0,0 UV-I 0 W/m 8,4 km/h (2 Bft)
30.07.2014 01:24 19,4 C 17,8 C 97 % 1010,1 hPa 0,0 l/m 0 min 0 min 0,0 UV-I 0 W/m 12,6 km/h (3 Bft)
30.07.2014 01:26 19,4 C 17,8 C 97 % 1009,9 hPa 0,0 l/m 0 min 0 min 0,0 UV-I 0 W/m 12,6 km/h (3 Bft)
30.07.2014 01:28 19,4 C 17,8 C 97 % 1010,0 hPa 0,0 l/m 0 min 0 min 0,0 UV-I 0 W/m 12,6 km/h (3 Bft)
30.07.2014 01:30 19,4 C 17,8 C 97 % 1010,0 hPa 0,0 l/m 0 min 0 min 0,0 UV-I 0 W/m 14,6 km/h (3 Bft)
30.07.2014 01:32 19,4 C 17,8 C 97 % 1010,0 hPa 0,0 l/m 0 min 0 min 0,0 UV-I 0 W/m 14,6 km/h (3 Bft)
30.07.2014 01:34 19,4 C 17,8 C 97 % 1010,0 hPa 0,0 l/m 0 min 0 min 0,0 UV-I 0 W/m 12,6 km/h (3 Bft)
30.07.2014 01:36 19,4 C 17,8 C 97 % 1009,9 hPa 0,0 l/m 0 min 0 min 0,0 UV-I 0 W/m 12,6 km/h (3 Bft)
30.07.2014 01:38 19,3 C 17,8 C 97 % 1010,0 hPa 0,0 l/m 0 min 0 min 0,0 UV-I 0 W/m 12,6 km/h (3 Bft)
30.07.2014 01:40 19,3 C 17,8 C 97 % 1010,0 hPa 0,0 l/m 0 min 0 min 0,0 UV-I 0 W/m 12,6 km/h (3 Bft)
30.07.2014 01:42 19,3 C 17,8 C 97 % 1010,0 hPa 0,0 l/m 0 min 0 min 0,0 UV-I 0 W/m 20,9 km/h (4 Bft)
30.07.2014 01:44 19,2 C 17,8 C 97 % 1010,0 hPa 0,0 l/m 0 min 0 min 0,0 UV-I 0 W/m 16,7 km/h (3 Bft)
30.07.2014 01:46 19,2 C 17,8 C 97 % 1010,0 hPa 0,0 l/m 0 min 0 min 0,0 UV-I 0 W/m 23,0 km/h (4 Bft)
30.07.2014 01:48 19,2 C 17,8 C 98 % 1010,1 hPa 0,0 l/m 0 min 0 min 0,0 UV-I 0 W/m 14,6 km/h (3 Bft)
30.07.2014 01:50 19,2 C 17,8 C 98 % 1010,1 hPa 0,0 l/m 0 min 0 min 0,0 UV-I 0 W/m 10,5 km/h (2 Bft)
30.07.2014 01:52 19,2 C 17,8 C 97 % 1010,1 hPa 0,0 l/m 0 min 0 min 0,0 UV-I 0 W/m 8,4 km/h (2 Bft)
30.07.2014 01:54 19,2 C 17,8 C 97 % 1010,1 hPa 0,0 l/m 0 min 0 min 0,0 UV-I 0 W/m 14,6 km/h (3 Bft)
30.07.2014 01:56 19,2 C 17,8 C 97 % 1010,1 hPa 0,0 l/m 0 min 0 min 0,0 UV-I 0 W/m 12,6 km/h (3 Bft)
30.07.2014 01:58 19,2 C 17,8 C 97 % 1010,1 hPa 0,0 l/m 0 min 0 min 0,0 UV-I 0 W/m 18,8 km/h (3 Bft)
30.07.2014 02:00 19,2 C 17,8 C 97 % 1010,1 hPa 0,0 l/m 0 min 0 min 0,0 UV-I 0 W/m 14,6 km/h (3 Bft)
30.07.2014 02:02 19,2 C 17,8 C 97 % 1010,1 hPa 0,0 l/m 0 min 0 min 0,0 UV-I 0 W/m 16,7 km/h (3 Bft)
30.07.2014 02:04 19,1 C 17,8 C 97 % 1010,1 hPa 0,0 l/m 0 min 0 min 0,0 UV-I 0 W/m 18,8 km/h (3 Bft)
30.07.2014 02:06 19,1 C 17,8 C 97 % 1010,1 hPa 0,0 l/m 0 min 0 min 0,0 UV-I 0 W/m 16,7 km/h (3 Bft)
30.07.2014 02:08 19,0 C 17,8 C 97 % 1010,1 hPa 0,0 l/m 0 min 0 min 0,0 UV-I 0 W/m 20,9 km/h (4 Bft)
30.07.2014 02:10 18,9 C 17,8 C 96 % 1010,0 hPa 0,0 l/m 0 min 0 min 0,0 UV-I 0 W/m 16,7 km/h (3 Bft)
30.07.2014 02:12 18,9 C 17,8 C 96 % 1010,0 hPa 0,0 l/m 0 min 0 min 0,0 UV-I 0 W/m 12,6 km/h (3 Bft)
30.07.2014 02:14 18,9 C 17,8 C 96 % 1010,1 hPa 0,0 l/m 0 min 0 min 0,0 UV-I 0 W/m 10,5 km/h (2 Bft)
30.07.2014 02:16 18,9 C 17,8 C 96 % 1010,1 hPa 0,0 l/m 0 min 0 min 0,0 UV-I 0 W/m 10,5 km/h (2 Bft)
30.07.2014 02:18 18,9 C 17,8 C 96 % 1010,1 hPa 0,0 l/m 0 min 0 min 0,0 UV-I 0 W/m 10,5 km/h (2 Bft)
30.07.2014 02:20 18,9 C 17,2 C 96 % 1010,1 hPa 0,0 l/m 0 min 0 min 0,0 UV-I 0 W/m 12,6 km/h (3 Bft)
30.07.2014 02:22 18,8 C 17,8 C 96 % 1010,1 hPa 0,0 l/m 0 min 0 min 0,0 UV-I 0 W/m 20,9 km/h (4 Bft)
30.07.2014 02:24 18,8 C 17,8 C 97 % 1010,1 hPa 0,0 l/m 0 min 0 min 0,0 UV-I 0 W/m 18,8 km/h (3 Bft)
30.07.2014 02:26 18,8 C 17,8 C 97 % 1010,1 hPa 0,0 l/m 0 min 0 min 0,0 UV-I 0 W/m 10,5 km/h (2 Bft)
30.07.2014 02:28 18,8 C 17,2 C 97 % 1010,1 hPa 0,0 l/m 0 min 0 min 0,0 UV-I 0 W/m 12,6 km/h (3 Bft)
30.07.2014 02:30 18,8 C 17,8 C 97 % 1010,1 hPa 0,0 l/m 0 min 0 min 0,0 UV-I 0 W/m 18,8 km/h (3 Bft)
30.07.2014 02:32 18,7 C 17,2 C 96 % 1010,1 hPa 0,0 l/m 0 min 0 min 0,0 UV-I 0 W/m 8,4 km/h (2 Bft)
30.07.2014 02:34 18,7 C 17,2 C 96 % 1010,1 hPa 0,0 l/m 0 min 0 min 0,0 UV-I 0 W/m 18,8 km/h (3 Bft)
30.07.2014 02:36 18,7 C 17,2 C 96 % 1010,1 hPa 0,0 l/m 0 min 0 min 0,0 UV-I 0 W/m 16,7 km/h (3 Bft)
30.07.2014 02:38 18,7 C 17,2 C 96 % 1010,1 hPa 0,0 l/m 0 min 0 min 0,0 UV-I 0 W/m 20,9 km/h (4 Bft)
30.07.2014 02:40 18,6 C 17,2 C 96 % 1010,1 hPa 0,0 l/m 0 min 0 min 0,0 UV-I 0 W/m 16,7 km/h (3 Bft)
30.07.2014 02:42 18,6 C 17,2 C 96 % 1010,1 hPa 0,0 l/m 0 min 0 min 0,0 UV-I 0 W/m 16,7 km/h (3 Bft)
30.07.2014 02:44 18,6 C 17,2 C 96 % 1010,1 hPa 0,0 l/m 0 min 0 min 0,0 UV-I 0 W/m 16,7 km/h (3 Bft)
30.07.2014 02:46 18,6 C 17,2 C 96 % 1010,0 hPa 0,0 l/m 0 min 0 min 0,0 UV-I 0 W/m 12,6 km/h (3 Bft)
30.07.2014 02:48 18,6 C 17,2 C 96 % 1010,1 hPa 0,0 l/m 0 min 0 min 0,0 UV-I 0 W/m 14,6 km/h (3 Bft)
30.07.2014 02:50 18,5 C 17,2 C 96 % 1010,1 hPa 0,0 l/m 0 min 0 min 0,0 UV-I 0 W/m 14,6 km/h (3 Bft)
30.07.2014 02:52 18,5 C 17,2 C 96 % 1010,1 hPa 0,0 l/m 0 min 0 min 0,0 UV-I 0 W/m 8,4 km/h (2 Bft)
30.07.2014 02:54 18,5 C 17,2 C 96 % 1010,1 hPa 0,0 l/m 0 min 0 min 0,0 UV-I 0 W/m 10,5 km/h (2 Bft)
30.07.2014 02:56 18,5 C 17,2 C 96 % 1010,1 hPa 0,0 l/m 0 min 0 min 0,0 UV-I 0 W/m 8,4 km/h (2 Bft)
30.07.2014 02:58 18,4 C 17,2 C 96 % 1010,1 hPa 0,0 l/m 0 min 0 min 0,0 UV-I 0 W/m 16,7 km/h (3 Bft)
30.07.2014 03:00 18,4 C 17,2 C 96 % 1010,1 hPa 0,0 l/m 0 min 0 min 0,0 UV-I 0 W/m 12,6 km/h (3 Bft)
30.07.2014 03:02 18,4 C 17,2 C 96 % 1010,2 hPa 0,0 l/m 0 min 0 min 0,0 UV-I 0 W/m 12,6 km/h (3 Bft)
30.07.2014 03:04 18,3 C 17,2 C 96 % 1010,3 hPa 0,0 l/m 0 min 0 min 0,0 UV-I 0 W/m 20,9 km/h (4 Bft)
30.07.2014 03:06 18,3 C 17,2 C 96 % 1010,2 hPa 0,0 l/m 0 min 0 min 0,0 UV-I 0 W/m 14,6 km/h (3 Bft)
30.07.2014 03:08 18,2 C 16,7 C 96 % 1010,1 hPa 0,0 l/m 0 min 0 min 0,0 UV-I 0 W/m 10,5 km/h (2 Bft)
30.07.2014 03:10 18,2 C 16,7 C 96 % 1010,2 hPa 0,0 l/m 0 min 0 min 0,0 UV-I 0 W/m 12,6 km/h (3 Bft)
30.07.2014 03:12 18,2 C 16,7 C 96 % 1010,2 hPa 0,0 l/m 0 min 0 min 0,0 UV-I 0 W/m 14,6 km/h (3 Bft)
30.07.2014 03:14 18,1 C 16,7 C 96 % 1010,1 hPa 0,0 l/m 0 min 0 min 0,0 UV-I 0 W/m 16,7 km/h (3 Bft)
30.07.2014 03:16 18,1 C 16,7 C 96 % 1010,2 hPa 0,0 l/m 0 min 0 min 0,0 UV-I 0 W/m 18,8 km/h (3 Bft)
30.07.2014 03:18 18,1 C 16,7 C 97 % 1010,1 hPa 0,0 l/m 0 min 0 min 0,0 UV-I 0 W/m 14,6 km/h (3 Bft)
30.07.2014 03:20 18,0 C 16,7 C 97 % 1010,1 hPa 0,0 l/m 0 min 0 min 0,0 UV-I 0 W/m 14,6 km/h (3 Bft)
30.07.2014 03:22 17,9 C 16,7 C 96 % 1010,1 hPa 0,0 l/m 0 min 0 min 0,0 UV-I 0 W/m 16,7 km/h (3 Bft)
30.07.2014 03:24 17,9 C 16,7 C 96 % 1010,1 hPa 0,0 l/m 0 min 0 min 0,0 UV-I 0 W/m 12,6 km/h (3 Bft)
30.07.2014 03:26 17,9 C 16,7 C 96 % 1010,1 hPa 0,0 l/m 0 min 0 min 0,0 UV-I 0 W/m 12,6 km/h (3 Bft)
30.07.2014 03:28 17,9 C 16,7 C 96 % 1010,1 hPa 0,0 l/m 0 min 0 min 0,0 UV-I 0 W/m 14,6 km/h (3 Bft)
30.07.2014 03:30 17,8 C 16,7 C 96 % 1010,1 hPa 0,0 l/m 0 min 0 min 0,0 UV-I 0 W/m 10,5 km/h (2 Bft)
30.07.2014 03:32 17,8 C 16,7 C 97 % 1010,2 hPa 0,0 l/m 0 min 0 min 0,0 UV-I 0 W/m 10,5 km/h (2 Bft)
30.07.2014 03:34 17,8 C 16,7 C 97 % 1010,2 hPa 0,0 l/m 0 min 0 min 0,0 UV-I 0 W/m 10,5 km/h (2 Bft)
30.07.2014 03:36 17,8 C 16,7 C 97 % 1010,2 hPa 0,0 l/m 0 min 0 min 0,0 UV-I 0 W/m 14,6 km/h (3 Bft)
30.07.2014 03:38 17,7 C 16,7 C 97 % 1010,2 hPa 0,0 l/m 0 min 0 min 0,0 UV-I 0 W/m 8,4 km/h (2 Bft)
30.07.2014 03:40 17,7 C 16,7 C 97 % 1010,1 hPa 0,0 l/m 0 min 0 min 0,0 UV-I 0 W/m 14,6 km/h (3 Bft)
30.07.2014 03:42 17,7 C 16,7 C 97 % 1010,1 hPa 0,0 l/m 0 min 0 min 0,0 UV-I 0 W/m 20,9 km/h (4 Bft)
30.07.2014 03:44 17,7 C 16,7 C 97 % 1010,2 hPa 0,0 l/m 0 min 0 min 0,0 UV-I 0 W/m 16,7 km/h (3 Bft)
30.07.2014 03:46 17,7 C 16,7 C 97 % 1010,2 hPa 0,0 l/m 0 min 0 min 0,0 UV-I 0 W/m 12,6 km/h (3 Bft)
30.07.2014 03:48 17,7 C 16,7 C 97 % 1010,1 hPa 0,0 l/m 0 min 0 min 0,0 UV-I 0 W/m 10,5 km/h (2 Bft)
30.07.2014 03:50 17,6 C 16,7 C 97 % 1010,1 hPa 0,0 l/m 0 min 0 min 0,0 UV-I 0 W/m 12,6 km/h (3 Bft)
30.07.2014 03:52 17,6 C 16,7 C 97 % 1010,1 hPa 0,0 l/m 0 min 0 min 0,0 UV-I 0 W/m 8,4 km/h (2 Bft)
30.07.2014 03:54 17,6 C 16,7 C 97 % 1010,1 hPa 0,0 l/m 0 min 0 min 0,0 UV-I 0 W/m 12,6 km/h (3 Bft)
30.07.2014 03:56 17,6 C 16,7 C 97 % 1010,0 hPa 0,0 l/m 0 min 0 min 0,0 UV-I 0 W/m 12,6 km/h (3 Bft)
30.07.2014 03:58 17,6 C 16,7 C 97 % 1010,1 hPa 0,0 l/m 0 min 0 min 0,0 UV-I 0 W/m 12,6 km/h (3 Bft)
30.07.2014 04:00 17,6 C 16,7 C 97 % 1010,1 hPa 0,0 l/m 0 min 0 min 0,0 UV-I 0 W/m 10,5 km/h (2 Bft)
30.07.2014 04:02 17,6 C 16,7 C 97 % 1010,1 hPa 0,0 l/m 0 min 0 min 0,0 UV-I 0 W/m 4,2 km/h (1 Bft)
30.07.2014 04:04 17,6 C 16,7 C 97 % 1010,1 hPa 0,0 l/m 0 min 0 min 0,0 UV-I 0 W/m 16,7 km/h (3 Bft)
30.07.2014 04:06 17,6 C 16,7 C 97 % 1010,1 hPa 0,0 l/m 0 min 0 min 0,0 UV-I 0 W/m 14,6 km/h (3 Bft)
30.07.2014 04:08 17,6 C 16,7 C 97 % 1010,0 hPa 0,0 l/m 0 min 0 min 0,0 UV-I 0 W/m 8,4 km/h (2 Bft)
30.07.2014 04:10 17,6 C 16,7 C 97 % 1010,0 hPa 0,0 l/m 0 min 0 min 0,0 UV-I 0 W/m 12,6 km/h (3 Bft)
30.07.2014 04:12 17,6 C 16,7 C 97 % 1010,0 hPa 0,0 l/m 0 min 0 min 0,0 UV-I 0 W/m 16,7 km/h (3 Bft)
30.07.2014 04:14 17,6 C 16,7 C 97 % 1010,1 hPa 0,0 l/m 0 min 0 min 0,0 UV-I 0 W/m 12,6 km/h (3 Bft)
30.07.2014 04:16 17,6 C 16,7 C 97 % 1010,2 hPa 0,0 l/m 0 min 0 min 0,0 UV-I 0 W/m 16,7 km/h (3 Bft)
30.07.2014 04:18 17,6 C 16,7 C 97 % 1010,2 hPa 0,0 l/m 0 min 0 min 0,0 UV-I 0 W/m 16,7 km/h (3 Bft)
30.07.2014 04:20 17,6 C 16,7 C 97 % 1010,2 hPa 0,0 l/m 0 min 0 min 0,0 UV-I 0 W/m 14,6 km/h (3 Bft)
30.07.2014 04:22 17,5 C 16,7 C 97 % 1010,1 hPa 0,0 l/m 0 min 0 min 0,0 UV-I 0 W/m 14,6 km/h (3 Bft)
30.07.2014 04:24 17,5 C 16,7 C 97 % 1010,1 hPa 0,0 l/m 0 min 0 min 0,0 UV-I 0 W/m 18,8 km/h (3 Bft)
30.07.2014 04:26 17,5 C 16,7 C 97 % 1010,1 hPa 0,0 l/m 0 min 0 min 0,0 UV-I 0 W/m 16,7 km/h (3 Bft)
30.07.2014 04:28 17,5 C 16,7 C 97 % 1010,1 hPa 0,0 l/m 0 min 0 min 0,0 UV-I 0 W/m 10,5 km/h (2 Bft)
30.07.2014 04:30 17,5 C 16,7 C 97 % 1010,1 hPa 0,0 l/m 0 min 0 min 0,0 UV-I 0 W/m 16,7 km/h (3 Bft)
30.07.2014 04:32 17,5 C 16,7 C 97 % 1010,1 hPa 0,0 l/m 0 min 0 min 0,0 UV-I 0 W/m 20,9 km/h (4 Bft)
30.07.2014 04:34 17,5 C 16,7 C 97 % 1010,0 hPa 0,0 l/m 0 min 0 min 0,0 UV-I 0 W/m 27,2 km/h (4 Bft)
30.07.2014 04:36 17,5 C 16,7 C 97 % 1010,0 hPa 0,0 l/m 0 min 0 min 0,0 UV-I 0 W/m 18,8 km/h (3 Bft)
30.07.2014 04:38 17,5 C 16,7 C 97 % 1010,0 hPa 0,0 l/m 0 min 0 min 0,0 UV-I 0 W/m 25,1 km/h (4 Bft)
30.07.2014 04:40 17,5 C 16,7 C 97 % 1010,1 hPa 0,0 l/m 0 min 0 min 0,0 UV-I 0 W/m 20,9 km/h (4 Bft)
30.07.2014 04:42 17,4 C 16,1 C 97 % 1010,0 hPa 0,0 l/m 0 min 0 min 0,0 UV-I 0 W/m 12,6 km/h (3 Bft)
30.07.2014 04:44 17,4 C 16,1 C 97 % 1010,1 hPa 0,0 l/m 0 min 0 min 0,0 UV-I 0 W/m 14,6 km/h (3 Bft)
30.07.2014 04:46 17,4 C 16,1 C 97 % 1010,0 hPa 0,0 l/m 0 min 0 min 0,0 UV-I 0 W/m 16,7 km/h (3 Bft)
30.07.2014 04:48 17,4 C 16,1 C 97 % 1010,0 hPa 0,0 l/m 0 min 0 min 0,0 UV-I 0 W/m 20,9 km/h (4 Bft)
30.07.2014 04:50 17,4 C 16,1 C 97 % 1010,1 hPa 0,0 l/m 0 min 0 min 0,0 UV-I 0 W/m 14,6 km/h (3 Bft)
30.07.2014 04:52 17,3 C 16,1 C 97 % 1010,1 hPa 0,0 l/m 0 min 0 min 0,0 UV-I 0 W/m 18,8 km/h (3 Bft)
30.07.2014 04:54 17,3 C 16,1 C 97 % 1010,1 hPa 0,0 l/m 0 min 0 min 0,0 UV-I 0 W/m 23,0 km/h (4 Bft)
30.07.2014 04:56 17,3 C 16,1 C 97 % 1010,1 hPa 0,0 l/m 0 min 0 min 0,0 UV-I 0 W/m 10,5 km/h (2 Bft)
30.07.2014 04:58 17,3 C 16,1 C 97 % 1010,1 hPa 0,0 l/m 0 min 0 min 0,0 UV-I 0 W/m 23,0 km/h (4 Bft)
30.07.2014 05:00 17,2 C 16,1 C 97 % 1010,2 hPa 0,0 l/m 0 min 0 min 0,0 UV-I 0 W/m 16,7 km/h (3 Bft)
30.07.2014 05:02 17,2 C 16,1 C 97 % 1010,3 hPa 0,0 l/m 0 min 0 min 0,0 UV-I 0 W/m 20,9 km/h (4 Bft)
30.07.2014 05:04 17,2 C 16,1 C 97 % 1010,3 hPa 0,0 l/m 0 min 0 min 0,0 UV-I 0 W/m 16,7 km/h (3 Bft)
30.07.2014 05:06 17,2 C 16,1 C 97 % 1010,3 hPa 0,0 l/m 0 min 0 min 0,0 UV-I 0 W/m 8,4 km/h (2 Bft)
30.07.2014 05:08 17,2 C 16,1 C 97 % 1010,3 hPa 0,0 l/m 0 min 0 min 0,0 UV-I 0 W/m 18,8 km/h (3 Bft)
30.07.2014 05:10 17,1 C 16,1 C 97 % 1010,4 hPa 0,0 l/m 0 min 0 min 0,0 UV-I 0 W/m 16,7 km/h (3 Bft)
30.07.2014 05:12 17,1 C 16,1 C 97 % 1010,4 hPa 0,0 l/m 0 min 0 min 0,0 UV-I 0 W/m 10,5 km/h (2 Bft)
30.07.2014 05:14 17,1 C 16,1 C 97 % 1010,3 hPa 0,0 l/m 0 min 0 min 0,0 UV-I 0 W/m 18,8 km/h (3 Bft)
30.07.2014 05:16 17,1 C 16,1 C 97 % 1010,3 hPa 0,0 l/m 0 min 0 min 0,0 UV-I 0 W/m 16,7 km/h (3 Bft)
30.07.2014 05:18 17,0 C 16,1 C 97 % 1010,3 hPa 0,0 l/m 0 min 0 min 0,0 UV-I 0 W/m 14,6 km/h (3 Bft)
30.07.2014 05:20 17,0 C 16,1 C 97 % 1010,4 hPa 0,0 l/m 0 min 0 min 0,0 UV-I 0 W/m 12,6 km/h (3 Bft)
30.07.2014 05:22 16,9 C 15,6 C 97 % 1010,4 hPa 0,0 l/m 0 min 0 min 0,0 UV-I 0 W/m 14,6 km/h (3 Bft)
30.07.2014 05:24 16,9 C 15,6 C 97 % 1010,4 hPa 0,0 l/m 0 min 0 min 0,0 UV-I 0 W/m 16,7 km/h (3 Bft)
30.07.2014 05:26 16,9 C 15,6 C 97 % 1010,5 hPa 0,0 l/m 0 min 0 min 0,0 UV-I 0 W/m 12,6 km/h (3 Bft)
30.07.2014 05:28 16,9 C 15,6 C 97 % 1010,5 hPa 0,0 l/m 0 min 0 min 0,0 UV-I 0 W/m 14,6 km/h (3 Bft)
30.07.2014 05:30 16,8 C 15,6 C 97 % 1010,5 hPa 0,0 l/m 0 min 0 min 0,0 UV-I 0 W/m 10,5 km/h (2 Bft)
30.07.2014 05:32 16,8 C 15,6 C 97 % 1010,5 hPa 0,0 l/m 0 min 0 min 0,0 UV-I 0 W/m 14,6 km/h (3 Bft)
30.07.2014 05:34 16,8 C 15,6 C 97 % 1010,5 hPa 0,0 l/m 0 min 0 min 0,0 UV-I 0 W/m 18,8 km/h (3 Bft)
30.07.2014 05:36 16,8 C 15,6 C 97 % 1010,5 hPa 0,0 l/m 0 min 0 min 0,0 UV-I 0 W/m 14,6 km/h (3 Bft)
30.07.2014 05:38 16,8 C 15,6 C 97 % 1010,6 hPa 0,0 l/m 0 min 0 min 0,0 UV-I 0 W/m 12,6 km/h (3 Bft)
30.07.2014 05:40 16,7 C 15,6 C 97 % 1010,6 hPa 0,0 l/m 0 min 0 min 0,0 UV-I 0 W/m 16,7 km/h (3 Bft)
30.07.2014 05:42 16,7 C 15,6 C 97 % 1010,6 hPa 0,0 l/m 0 min 0 min 0,0 UV-I 0 W/m 14,6 km/h (3 Bft)
30.07.2014 05:44 16,7 C 15,6 C 97 % 1010,7 hPa 0,0 l/m 0 min 0 min 0,0 UV-I 0 W/m 20,9 km/h (4 Bft)
30.07.2014 05:46 16,7 C 15,6 C 97 % 1010,7 hPa 0,0 l/m 0 min 0 min 0,0 UV-I 0 W/m 23,0 km/h (4 Bft)
30.07.2014 05:48 16,7 C 15,6 C 97 % 1010,6 hPa 0,0 l/m 0 min 0 min 0,0 UV-I 0 W/m 10,5 km/h (2 Bft)
30.07.2014 05:50 16,6 C 15,6 C 97 % 1010,7 hPa 0,0 l/m 0 min 0 min 0,0 UV-I 0 W/m 16,7 km/h (3 Bft)
30.07.2014 05:52 16,6 C 15,6 C 97 % 1010,7 hPa 0,0 l/m 0 min 0 min 0,0 UV-I 0 W/m 10,5 km/h (2 Bft)
30.07.2014 05:54 16,6 C 15,6 C 97 % 1010,8 hPa 0,0 l/m 0 min 0 min 0,0 UV-I 0 W/m 12,6 km/h (3 Bft)
30.07.2014 05:56 16,6 C 15,6 C 97 % 1010,7 hPa 0,0 l/m 0 min 0 min 0,0 UV-I 0 W/m 16,7 km/h (3 Bft)
30.07.2014 05:58 16,6 C 15,6 C 97 % 1010,8 hPa 0,0 l/m 0 min 0 min 0,0 UV-I 0 W/m 10,5 km/h (2 Bft)
30.07.2014 06:00 16,6 C 15,6 C 97 % 1010,8 hPa 0,0 l/m 0 min 0 min 0,0 UV-I 1 W/m 12,6 km/h (3 Bft)
30.07.2014 06:02 16,6 C 15,6 C 97 % 1010,7 hPa 0,0 l/m 0 min 0 min 0,0 UV-I 5 W/m 14,6 km/h (3 Bft)
30.07.2014 06:06 16,6 C 15,6 C 97 % 1010,9 hPa 0,0 l/m 0 min 0 min 0,0 UV-I 5 W/m 18,8 km/h (3 Bft)
30.07.2014 06:08 16,6 C 15,6 C 97 % 1010,9 hPa 0,0 l/m 0 min 0 min 0,0 UV-I 5 W/m 12,6 km/h (3 Bft)
30.07.2014 06:10 16,5 C 15,6 C 97 % 1010,9 hPa 0,0 l/m 0 min 0 min 0,0 UV-I 7 W/m 14,6 km/h (3 Bft)
30.07.2014 06:12 16,5 C 15,6 C 97 % 1010,9 hPa 0,0 l/m 0 min 0 min 0,0 UV-I 7 W/m 14,6 km/h (3 Bft)
30.07.2014 06:14 16,5 C 15,6 C 97 % 1011,0 hPa 0,0 l/m 0 min 0 min 0,0 UV-I 7 W/m 14,6 km/h (3 Bft)
30.07.2014 06:16 16,5 C 15,6 C 97 % 1011,0 hPa 0,0 l/m 0 min 0 min 0,0 UV-I 9 W/m 14,6 km/h (3 Bft)
30.07.2014 06:18 16,6 C 15,6 C 97 % 1010,9 hPa 0,0 l/m 0 min 0 min 0,0 UV-I 9 W/m 14,6 km/h (3 Bft)
30.07.2014 06:20 16,5 C 15,6 C 97 % 1010,9 hPa 0,0 l/m 0 min 0 min 0,0 UV-I 11 W/m 14,6 km/h (3 Bft)
30.07.2014 06:22 16,5 C 15,6 C 97 % 1011,0 hPa 0,0 l/m 0 min 0 min 0,0 UV-I 11 W/m 14,6 km/h (3 Bft)
30.07.2014 06:24 16,5 C 15,6 C 97 % 1011,0 hPa 0,0 l/m 0 min 0 min 0,0 UV-I 11 W/m 10,5 km/h (2 Bft)
30.07.2014 06:26 16,5 C 15,6 C 97 % 1011,0 hPa 0,0 l/m 0 min 0 min 0,0 UV-I 11 W/m 10,5 km/h (2 Bft)
30.07.2014 06:28 16,5 C 15,6 C 97 % 1011,0 hPa 0,0 l/m 0 min 0 min 0,0 UV-I 12 W/m 12,6 km/h (3 Bft)
30.07.2014 06:30 16,5 C 15,6 C 97 % 1011,0 hPa 0,0 l/m 0 min 0 min 0,0 UV-I 12 W/m 14,6 km/h (3 Bft)
30.07.2014 06:32 16,4 C 15,6 C 97 % 1011,0 hPa 0,0 l/m 0 min 0 min 0,0 UV-I 12 W/m 14,6 km/h (3 Bft)
30.07.2014 06:34 16,4 C 15,6 C 97 % 1011,0 hPa 0,0 l/m 0 min 0 min 0,0 UV-I 14 W/m 12,6 km/h (3 Bft)
30.07.2014 06:36 16,5 C 15,6 C 97 % 1011,0 hPa 0,0 l/m 0 min 0 min 0,0 UV-I 14 W/m 10,5 km/h (2 Bft)
30.07.2014 06:38 16,4 C 15,6 C 97 % 1011,1 hPa 0,0 l/m 0 min 0 min 0,0 UV-I 15 W/m 10,5 km/h (2 Bft)
30.07.2014 06:40 16,4 C 15,6 C 97 % 1011,1 hPa 0,0 l/m 0 min 0 min 0,0 UV-I 18 W/m 8,4 km/h (2 Bft)
30.07.2014 06:42 16,4 C 15,6 C 97 % 1011,0 hPa 0,0 l/m 0 min 0 min 0,0 UV-I 19 W/m 14,6 km/h (3 Bft)
30.07.2014 06:44 16,4 C 15,6 C 97 % 1011,0 hPa 0,0 l/m 0 min 0 min 0,0 UV-I 22 W/m 18,8 km/h (3 Bft)
30.07.2014 06:46 16,4 C 15,6 C 98 % 1011,0 hPa 0,0 l/m 0 min 0 min 0,0 UV-I 25 W/m 10,5 km/h (2 Bft)
30.07.2014 06:48 16,4 C 15,6 C 98 % 1011,0 hPa 0,0 l/m 0 min 0 min 0,0 UV-I 30 W/m 10,5 km/h (2 Bft)
30.07.2014 06:50 16,4 C 15,6 C 98 % 1011,1 hPa 0,0 l/m 0 min 0 min 0,0 UV-I 36 W/m 12,6 km/h (3 Bft)
30.07.2014 06:52 16,4 C 15,6 C 98 % 1011,1 hPa 0,0 l/m 0 min 0 min 0,0 UV-I 40 W/m 12,6 km/h (3 Bft)
30.07.2014 06:54 16,4 C 15,6 C 98 % 1011,2 hPa 0,0 l/m 0 min 0 min 0,0 UV-I 42 W/m 16,7 km/h (3 Bft)
30.07.2014 06:56 16,4 C 15,6 C 98 % 1011,2 hPa 0,0 l/m 0 min 0 min 0,0 UV-I 44 W/m 2,1 km/h (1 Bft)
30.07.2014 06:58 16,4 C 15,6 C 98 % 1011,2 hPa 0,0 l/m 0 min 0 min 0,0 UV-I 44 W/m 8,4 km/h (2 Bft)
30.07.2014 07:00 16,4 C 15,6 C 98 % 1011,2 hPa 0,0 l/m 0 min 0 min 0,0 UV-I 45 W/m 12,6 km/h (3 Bft)
30.07.2014 07:02 16,4 C 15,6 C 98 % 1011,2 hPa 0,0 l/m 0 min 0 min 0,0 UV-I 42 W/m 10,5 km/h (2 Bft)
30.07.2014 07:04 16,5 C 15,6 C 98 % 1011,2 hPa 0,0 l/m 0 min 0 min 0,0 UV-I 38 W/m 10,5 km/h (2 Bft)
30.07.2014 07:06 16,5 C 15,6 C 97 % 1011,3 hPa 0,0 l/m 0 min 0 min 0,0 UV-I 35 W/m 8,4 km/h (2 Bft)
30.07.2014 07:08 16,5 C 15,6 C 97 % 1011,2 hPa 0,0 l/m 0 min 0 min 0,0 UV-I 33 W/m 8,4 km/h (2 Bft)
30.07.2014 07:10 16,5 C 15,6 C 97 % 1011,3 hPa 0,0 l/m 0 min 0 min 0,0 UV-I 36 W/m 12,6 km/h (3 Bft)
30.07.2014 07:12 16,5 C 15,6 C 97 % 1011,3 hPa 0,0 l/m 0 min 0 min 0,0 UV-I 41 W/m 12,6 km/h (3 Bft)
30.07.2014 07:14 16,5 C 15,6 C 97 % 1011,3 hPa 0,0 l/m 0 min 0 min 0,0 UV-I 50 W/m 10,5 km/h (2 Bft)
30.07.2014 07:16 16,5 C 15,6 C 97 % 1011,3 hPa 0,0 l/m 0 min 0 min 0,0 UV-I 56 W/m 6,3 km/h (2 Bft)
30.07.2014 07:18 16,6 C 15,6 C 97 % 1011,3 hPa 0,0 l/m 0 min 0 min 0,0 UV-I 54 W/m 0,0 km/h (0 Bft)
30.07.2014 07:20 16,6 C 15,6 C 97 % 1011,3 hPa 0,0 l/m 0 min 0 min 0,0 UV-I 53 W/m 8,4 km/h (2 Bft)
30.07.2014 07:22 16,6 C 15,6 C 97 % 1011,3 hPa 0,0 l/m 0 min 0 min 0,0 UV-I 55 W/m 10,5 km/h (2 Bft)
30.07.2014 07:24 16,6 C 15,6 C 97 % 1011,4 hPa 0,0 l/m 0 min 0 min 0,0 UV-I 58 W/m 10,5 km/h (2 Bft)
30.07.2014 07:26 16,6 C 15,6 C 97 % 1011,4 hPa 0,0 l/m 0 min 0 min 0,0 UV-I 58 W/m 10,5 km/h (2 Bft)
30.07.2014 07:28 16,6 C 15,6 C 97 % 1011,4 hPa 0,0 l/m 0 min 0 min 0,0 UV-I 62 W/m 0,0 km/h (0 Bft)
30.07.2014 07:30 16,6 C 15,6 C 97 % 1011,4 hPa 0,0 l/m 0 min 0 min 0,0 UV-I 64 W/m 10,5 km/h (2 Bft)
30.07.2014 07:32 16,6 C 15,6 C 97 % 1011,4 hPa 0,0 l/m 0 min 0 min 0,0 UV-I 67 W/m 2,1 km/h (1 Bft)
30.07.2014 07:34 16,6 C 15,6 C 97 % 1011,4 hPa 0,0 l/m 0 min 0 min 0,0 UV-I 69 W/m 6,3 km/h (2 Bft)
30.07.2014 07:36 16,7 C 16,1 C 97 % 1011,4 hPa 0,0 l/m 0 min 0 min 0,0 UV-I 68 W/m 10,5 km/h (2 Bft)
30.07.2014 07:38 16,7 C 16,1 C 97 % 1011,4 hPa 0,0 l/m 0 min 0 min 0,0 UV-I 71 W/m 10,5 km/h (2 Bft)
30.07.2014 07:40 16,7 C 16,1 C 97 % 1011,4 hPa 0,0 l/m 0 min 0 min 0,0 UV-I 77 W/m 8,4 km/h (2 Bft)
30.07.2014 07:42 16,7 C 16,1 C 97 % 1011,4 hPa 0,0 l/m 0 min 0 min 0,0 UV-I 90 W/m 8,4 km/h (2 Bft)
30.07.2014 07:44 16,8 C 16,1 C 97 % 1011,4 hPa 0,0 l/m 0 min 0 min 0,0 UV-I 100 W/m 8,4 km/h (2 Bft)
30.07.2014 07:46 16,8 C 16,1 C 97 % 1011,5 hPa 0,0 l/m 0 min 0 min 0,0 UV-I 105 W/m 8,4 km/h (2 Bft)
30.07.2014 07:48 16,9 C 16,1 C 97 % 1011,4 hPa 0,0 l/m 0 min 0 min 0,0 UV-I 100 W/m 10,5 km/h (2 Bft)
30.07.2014 07:50 16,9 C 16,7 C 97 % 1011,5 hPa 0,0 l/m 0 min 0 min 0,0 UV-I 102 W/m 12,6 km/h (3 Bft)
30.07.2014 07:52 17,0 C 16,7 C 97 % 1011,5 hPa 0,0 l/m 0 min 0 min 0,0 UV-I 104 W/m 14,6 km/h (3 Bft)
30.07.2014 07:54 17,0 C 16,7 C 97 % 1011,5 hPa 0,0 l/m 0 min 0 min 0,0 UV-I 95 W/m 12,6 km/h (3 Bft)
30.07.2014 07:56 17,0 C 16,7 C 97 % 1011,5 hPa 0,0 l/m 0 min 0 min 0,0 UV-I 78 W/m 12,6 km/h (3 Bft)
30.07.2014 07:58 17,1 C 16,7 C 97 % 1011,5 hPa 0,0 l/m 0 min 0 min 0,0 UV-I 65 W/m 16,7 km/h (3 Bft)
30.07.2014 08:00 17,0 C 16,7 C 97 % 1011,5 hPa 0,0 l/m 0 min 0 min 0,0 UV-I 63 W/m 14,6 km/h (3 Bft)
30.07.2014 08:02 17,0 C 16,7 C 97 % 1011,5 hPa 0,0 l/m 0 min 0 min 0,0 UV-I 68 W/m 16,7 km/h (3 Bft)
30.07.2014 08:04 17,0 C 16,1 C 97 % 1011,6 hPa 0,0 l/m 0 min 0 min 0,0 UV-I 74 W/m 12,6 km/h (3 Bft)
30.07.2014 08:06 17,0 C 16,1 C 97 % 1011,5 hPa 0,0 l/m 0 min 0 min 0,0 UV-I 83 W/m 12,6 km/h (3 Bft)
30.07.2014 08:08 17,1 C 16,7 C 96 % 1011,5 hPa 0,0 l/m 0 min 0 min 0,0 UV-I 101 W/m 8,4 km/h (2 Bft)
30.07.2014 08:10 17,1 C 16,7 C 96 % 1011,5 hPa 0,0 l/m 0 min 0 min 0,0 UV-I 118 W/m 10,5 km/h (2 Bft)
30.07.2014 08:12 17,1 C 16,7 C 96 % 1011,6 hPa 0,0 l/m 0 min 0 min 0,0 UV-I 154 W/m 14,6 km/h (3 Bft)
30.07.2014 08:14 17,2 C 16,7 C 96 % 1011,5 hPa 0,0 l/m 2 min 0 min 0,0 UV-I 218 W/m 10,5 km/h (2 Bft)
30.07.2014 08:16 17,2 C 16,7 C 96 % 1011,6 hPa 0,0 l/m 0 min 0 min 0,0 UV-I 147 W/m 12,6 km/h (3 Bft)
30.07.2014 08:18 17,2 C 16,7 C 96 % 1011,6 hPa 0,0 l/m 0 min 0 min 0,0 UV-I 149 W/m 8,4 km/h (2 Bft)
30.07.2014 08:20 17,2 C 16,7 C 96 % 1011,6 hPa 0,0 l/m 2 min 0 min 0,0 UV-I 184 W/m 16,7 km/h (3 Bft)
30.07.2014 08:22 17,3 C 16,7 C 96 % 1011,5 hPa 0,0 l/m 2 min 0 min 0,0 UV-I 174 W/m 14,6 km/h (3 Bft)
30.07.2014 08:24 17,3 C 16,7 C 96 % 1011,6 hPa 0,0 l/m 2 min 0 min 0,0 UV-I 231 W/m 12,6 km/h (3 Bft)
30.07.2014 08:26 17,4 C 16,7 C 95 % 1011,6 hPa 0,0 l/m 2 min 0 min 0,0 UV-I 216 W/m 8,4 km/h (2 Bft)
30.07.2014 08:28 17,4 C 16,7 C 95 % 1011,6 hPa 0,0 l/m 2 min 0 min 0,0 UV-I 291 W/m 16,7 km/h (3 Bft)
30.07.2014 08:30 17,4 C 16,7 C 95 % 1011,7 hPa 0,0 l/m 2 min 0 min 0,0 UV-I 245 W/m 16,7 km/h (3 Bft)
30.07.2014 08:32 17,5 C 16,7 C 95 % 1011,7 hPa 0,0 l/m 0 min 0 min 0,0 UV-I 154 W/m 12,6 km/h (3 Bft)
30.07.2014 08:34 17,6 C 16,7 C 95 % 1011,7 hPa 0,0 l/m 0 min 0 min 0,0 UV-I 156 W/m 14,6 km/h (3 Bft)
30.07.2014 08:36 17,5 C 16,7 C 94 % 1011,7 hPa 0,0 l/m 0 min 0 min 0,0 UV-I 174 W/m 12,6 km/h (3 Bft)
30.07.2014 08:38 17,5 C 16,7 C 94 % 1011,8 hPa 0,0 l/m 0 min 0 min 0,0 UV-I 191 W/m 6,3 km/h (2 Bft)
30.07.2014 08:40 17,5 C 16,7 C 94 % 1011,7 hPa 0,0 l/m 2 min 0 min 0,0 UV-I 247 W/m 20,9 km/h (4 Bft)
30.07.2014 08:42 17,6 C 16,7 C 94 % 1011,8 hPa 0,0 l/m 2 min 0 min 0,0 UV-I 312 W/m 10,5 km/h (2 Bft)
30.07.2014 08:44 17,7 C 16,7 C 94 % 1011,8 hPa 0,0 l/m 2 min 0 min 0,0 UV-I 328 W/m 8,4 km/h (2 Bft)
30.07.2014 08:46 17,7 C 16,7 C 94 % 1011,8 hPa 0,0 l/m 2 min 0 min 0,5 UV-I 342 W/m 16,7 km/h (3 Bft)
30.07.2014 08:48 17,8 C 16,7 C 94 % 1011,8 hPa 0,0 l/m 2 min 0 min 0,3 UV-I 314 W/m 10,5 km/h (2 Bft)
30.07.2014 08:50 17,9 C 17,2 C 94 % 1011,8 hPa 0,0 l/m 2 min 0 min 0,5 UV-I 372 W/m 14,6 km/h (3 Bft)
30.07.2014 08:52 18,0 C 17,2 C 93 % 1011,8 hPa 0,0 l/m 2 min 0 min 0,3 UV-I 410 W/m 18,8 km/h (3 Bft)
30.07.2014 08:54 18,0 C 17,2 C 93 % 1011,8 hPa 0,0 l/m 2 min 0 min 0,4 UV-I 408 W/m 16,7 km/h (3 Bft)
30.07.2014 08:56 18,1 C 17,2 C 92 % 1011,8 hPa 0,0 l/m 2 min 0 min 0,0 UV-I 277 W/m 14,6 km/h (3 Bft)
30.07.2014 08:58 18,2 C 17,2 C 92 % 1011,8 hPa 0,0 l/m 0 min 0 min 0,0 UV-I 207 W/m 20,9 km/h (4 Bft)
30.07.2014 09:00 18,2 C 17,2 C 92 % 1011,9 hPa 0,0 l/m 2 min 0 min 0,0 UV-I 244 W/m 16,7 km/h (3 Bft)
30.07.2014 09:02 18,2 C 17,2 C 92 % 1011,9 hPa 0,0 l/m 0 min 0 min 0,0 UV-I 166 W/m 18,8 km/h (3 Bft)
30.07.2014 09:04 18,2 C 17,2 C 91 % 1011,8 hPa 0,0 l/m 0 min 0 min 0,0 UV-I 163 W/m 18,8 km/h (3 Bft)
30.07.2014 09:06 18,2 C 17,2 C 91 % 1011,9 hPa 0,0 l/m 0 min 0 min 0,0 UV-I 209 W/m 14,6 km/h (3 Bft)
30.07.2014 09:08 18,2 C 17,2 C 91 % 1011,8 hPa 0,0 l/m 0 min 0 min 0,0 UV-I 189 W/m 25,1 km/h (4 Bft)
30.07.2014 09:10 18,2 C 17,2 C 91 % 1011,8 hPa 0,0 l/m 0 min 0 min 0,0 UV-I 168 W/m 14,6 km/h (3 Bft)
30.07.2014 09:12 18,2 C 17,2 C 91 % 1011,8 hPa 0,0 l/m 0 min 0 min 0,0 UV-I 154 W/m 16,7 km/h (3 Bft)
30.07.2014 09:14 18,2 C 17,2 C 90 % 1011,8 hPa 0,0 l/m 0 min 0 min 0,0 UV-I 141 W/m 25,1 km/h (4 Bft)
30.07.2014 09:16 18,1 C 17,2 C 90 % 1011,8 hPa 0,0 l/m 0 min 0 min 0,3 UV-I 175 W/m 14,6 km/h (3 Bft)
30.07.2014 09:18 18,2 C 17,2 C 91 % 1011,9 hPa 0,0 l/m 0 min 0 min 0,5 UV-I 220 W/m 16,7 km/h (3 Bft)
30.07.2014 09:20 18,2 C 17,2 C 91 % 1011,8 hPa 0,0 l/m 0 min 0 min 0,5 UV-I 213 W/m 16,7 km/h (3 Bft)
30.07.2014 09:22 18,2 C 17,2 C 91 % 1011,9 hPa 0,0 l/m 0 min 0 min 0,6 UV-I 210 W/m 16,7 km/h (3 Bft)
30.07.2014 09:24 18,2 C 17,2 C 91 % 1011,9 hPa 0,0 l/m 0 min 0 min 0,6 UV-I 187 W/m 20,9 km/h (4 Bft)
30.07.2014 09:26 18,2 C 17,2 C 90 % 1011,9 hPa 0,0 l/m 0 min 0 min 0,6 UV-I 176 W/m 16,7 km/h (3 Bft)
30.07.2014 09:28 18,3 C 17,8 C 90 % 1011,9 hPa 0,0 l/m 0 min 0 min 0,6 UV-I 203 W/m 16,7 km/h (3 Bft)
30.07.2014 09:30 18,3 C 17,8 C 90 % 1011,9 hPa 0,0 l/m 0 min 0 min 0,6 UV-I 200 W/m 8,4 km/h (2 Bft)
30.07.2014 09:32 18,4 C 17,8 C 90 % 1011,9 hPa 0,0 l/m 0 min 0 min 0,5 UV-I 223 W/m 8,4 km/h (2 Bft)
30.07.2014 09:34 18,4 C 17,8 C 90 % 1011,9 hPa 0,0 l/m 0 min 0 min 0,3 UV-I 229 W/m 14,6 km/h (3 Bft)
30.07.2014 09:36 18,5 C 17,8 C 90 % 1011,9 hPa 0,0 l/m 0 min 0 min 0,8 UV-I 207 W/m 14,6 km/h (3 Bft)
30.07.2014 09:38 18,6 C 17,8 C 90 % 1011,9 hPa 0,0 l/m 0 min 0 min 0,7 UV-I 215 W/m 16,7 km/h (3 Bft)
30.07.2014 09:40 18,6 C 18,3 C 90 % 1011,9 hPa 0,0 l/m 0 min 0 min 0,7 UV-I 254 W/m 18,8 km/h (3 Bft)
30.07.2014 09:42 18,6 C 18,3 C 89 % 1011,9 hPa 0,0 l/m 0 min 0 min 0,7 UV-I 233 W/m 12,6 km/h (3 Bft)
30.07.2014 09:44 18,7 C 18,3 C 89 % 1011,9 hPa 0,0 l/m 0 min 0 min 0,9 UV-I 245 W/m 8,4 km/h (2 Bft)
30.07.2014 09:46 18,7 C 18,3 C 90 % 1011,9 hPa 0,0 l/m 0 min 0 min 0,7 UV-I 233 W/m 10,5 km/h (2 Bft)
30.07.2014 09:48 18,8 C 18,3 C 89 % 1011,9 hPa 0,0 l/m 0 min 0 min 0,8 UV-I 249 W/m 18,8 km/h (3 Bft)
30.07.2014 09:50 18,8 C 18,9 C 89 % 1011,9 hPa 0,0 l/m 2 min 0 min 1,2 UV-I 450 W/m 18,8 km/h (3 Bft)
30.07.2014 09:52 19,0 C 19,4 C 89 % 1011,9 hPa 0,0 l/m 2 min 0 min 0,9 UV-I 450 W/m 12,6 km/h (3 Bft)
30.07.2014 09:54 19,0 C 18,9 C 88 % 1011,9 hPa 0,0 l/m 0 min 0 min 0,8 UV-I 207 W/m 16,7 km/h (3 Bft)
30.07.2014 09:56 19,1 C 19,4 C 88 % 1011,9 hPa 0,0 l/m 0 min 0 min 1,0 UV-I 220 W/m 10,5 km/h (2 Bft)
30.07.2014 09:58 19,1 C 19,4 C 88 % 1011,9 hPa 0,0 l/m 0 min 0 min 0,9 UV-I 251 W/m 14,6 km/h (3 Bft)
30.07.2014 10:00 19,0 C 18,9 C 87 % 1011,9 hPa 0,0 l/m 0 min 0 min 0,6 UV-I 186 W/m 16,7 km/h (3 Bft)
30.07.2014 10:02 19,0 C 18,3 C 88 % 1011,9 hPa 0,0 l/m 0 min 0 min 0,7 UV-I 175 W/m 16,7 km/h (3 Bft)
30.07.2014 10:04 18,9 C 18,3 C 87 % 1011,9 hPa 0,0 l/m 0 min 0 min 0,9 UV-I 171 W/m 12,6 km/h (3 Bft)
30.07.2014 10:06 18,9 C 18,3 C 87 % 1011,9 hPa 0,0 l/m 0 min 0 min 1,0 UV-I 177 W/m 12,6 km/h (3 Bft)
30.07.2014 10:08 18,9 C 18,3 C 87 % 1012,0 hPa 0,0 l/m 0 min 0 min 1,2 UV-I 192 W/m 16,7 km/h (3 Bft)
30.07.2014 10:10 19,0 C 19,4 C 87 % 1011,9 hPa 0,0 l/m 0 min 0 min 1,5 UV-I 193 W/m 14,6 km/h (3 Bft)
30.07.2014 10:12 19,2 C 21,7 C 88 % 1011,9 hPa 0,0 l/m 2 min 0 min 2,2 UV-I 630 W/m 14,6 km/h (3 Bft)
30.07.2014 10:14 19,6 C 23,3 C 87 % 1011,9 hPa 0,0 l/m 2 min 0 min 2,2 UV-I 690 W/m 23,0 km/h (4 Bft)
30.07.2014 10:16 19,8 C 23,3 C 84 % 1011,9 hPa 0,0 l/m 2 min 0 min 2,1 UV-I 733 W/m 18,8 km/h (3 Bft)
30.07.2014 10:18 20,1 C 23,3 C 84 % 1011,9 hPa 0,0 l/m 2 min 0 min 1,7 UV-I 735 W/m 12,6 km/h (3 Bft)
30.07.2014 10:20 20,3 C 24,4 C 84 % 1012,0 hPa 0,0 l/m 2 min 0 min 2,2 UV-I 731 W/m 16,7 km/h (3 Bft)
30.07.2014 10:22 20,6 C 24,4 C 84 % 1012,0 hPa 0,0 l/m 2 min 0 min 2,2 UV-I 695 W/m 18,8 km/h (3 Bft)
30.07.2014 10:24 20,6 C 23,3 C 84 % 1012,1 hPa 0,0 l/m 2 min 0 min 1,4 UV-I 426 W/m 20,9 km/h (4 Bft)
30.07.2014 10:26 20,4 C 21,7 C 82 % 1012,1 hPa 0,0 l/m 0 min 0 min 1,5 UV-I 274 W/m 20,9 km/h (4 Bft)
30.07.2014 10:28 20,1 C 20,6 C 83 % 1012,1 hPa 0,0 l/m 0 min 0 min 1,5 UV-I 265 W/m 18,8 km/h (3 Bft)
30.07.2014 10:30 19,9 C 20,6 C 83 % 1012,1 hPa 0,0 l/m 0 min 0 min 1,3 UV-I 235 W/m 10,5 km/h (2 Bft)
30.07.2014 10:32 19,8 C 21,1 C 83 % 1012,0 hPa 0,0 l/m 0 min 0 min 1,8 UV-I 230 W/m 12,6 km/h (3 Bft)
30.07.2014 10:34 19,8 C 20,6 C 84 % 1012,1 hPa 0,0 l/m 0 min 0 min 1,3 UV-I 218 W/m 16,7 km/h (3 Bft)
30.07.2014 10:36 19,7 C 20,0 C 82 % 1012,1 hPa 0,0 l/m 0 min 0 min 1,4 UV-I 197 W/m 12,6 km/h (3 Bft)
30.07.2014 10:38 19,7 C 19,4 C 82 % 1012,1 hPa 0,0 l/m 0 min 0 min 1,5 UV-I 194 W/m 10,5 km/h (2 Bft)
30.07.2014 10:40 19,7 C 20,0 C 83 % 1012,1 hPa 0,0 l/m 0 min 0 min 2,2 UV-I 203 W/m 10,5 km/h (2 Bft)
30.07.2014 10:42 19,8 C 21,1 C 82 % 1012,1 hPa 0,0 l/m 0 min 0 min 2,8 UV-I 204 W/m 12,6 km/h (3 Bft)
30.07.2014 10:44 20,2 C 22,8 C 84 % 1012,0 hPa 0,0 l/m 2 min 0 min 3,1 UV-I 372 W/m 10,5 km/h (2 Bft)
30.07.2014 10:46 20,5 C 22,8 C 81 % 1012,0 hPa 0,0 l/m 2 min 0 min 3,3 UV-I 808 W/m 18,8 km/h (3 Bft)
30.07.2014 10:48 20,7 C 22,8 C 79 % 1012,0 hPa 0,0 l/m 2 min 0 min 3,2 UV-I 821 W/m 16,7 km/h (3 Bft)
30.07.2014 10:50 20,9 C 22,8 C 79 % 1012,0 hPa 0,0 l/m 2 min 0 min 2,6 UV-I 821 W/m 14,6 km/h (3 Bft)
30.07.2014 10:52 20,9 C 21,7 C 78 % 1012,0 hPa 0,0 l/m 2 min 0 min 1,9 UV-I 566 W/m 16,7 km/h (3 Bft)
30.07.2014 10:54 20,9 C 22,2 C 79 % 1012,0 hPa 0,0 l/m 2 min 0 min 3,1 UV-I 336 W/m 14,6 km/h (3 Bft)
30.07.2014 10:56 20,8 C 22,8 C 79 % 1012,1 hPa 0,0 l/m 2 min 0 min 3,3 UV-I 648 W/m 12,6 km/h (3 Bft)
30.07.2014 10:58 20,9 C 23,3 C 78 % 1012,0 hPa 0,0 l/m 2 min 0 min 3,3 UV-I 742 W/m 12,6 km/h (3 Bft)
30.07.2014 11:00 21,0 C 23,3 C 78 % 1012,0 hPa 0,0 l/m 2 min 0 min 3,0 UV-I 719 W/m 14,6 km/h (3 Bft)
30.07.2014 11:02 21,1 C 22,2 C 77 % 1012,0 hPa 0,0 l/m 2 min 0 min 1,9 UV-I 554 W/m 12,6 km/h (3 Bft)
30.07.2014 11:04 20,9 C 21,1 C 77 % 1012,1 hPa 0,0 l/m 0 min 0 min 1,7 UV-I 201 W/m 14,6 km/h (3 Bft)
30.07.2014 11:06 20,7 C 20,6 C 77 % 1012,1 hPa 0,0 l/m 0 min 0 min 1,7 UV-I 193 W/m 14,6 km/h (3 Bft)
30.07.2014 11:08 20,4 C 20,0 C 78 % 1012,1 hPa 0,0 l/m 0 min 0 min 2,1 UV-I 185 W/m 18,8 km/h (3 Bft)
30.07.2014 11:10 20,5 C 21,7 C 79 % 1012,1 hPa 0,0 l/m 2 min 0 min 3,5 UV-I 454 W/m 14,6 km/h (3 Bft)
30.07.2014 11:12 20,7 C 22,8 C 79 % 1012,1 hPa 0,0 l/m 2 min 0 min 3,7 UV-I 747 W/m 18,8 km/h (3 Bft)
30.07.2014 11:14 21,0 C 22,8 C 78 % 1012,1 hPa 0,0 l/m 2 min 0 min 3,8 UV-I 733 W/m 25,1 km/h (4 Bft)
30.07.2014 11:16 21,2 C 22,8 C 76 % 1012,1 hPa 0,0 l/m 2 min 0 min 3,8 UV-I 741 W/m 16,7 km/h (3 Bft)
30.07.2014 11:18 21,3 C 22,8 C 75 % 1012,1 hPa 0,0 l/m 2 min 0 min 3,8 UV-I 753 W/m 14,6 km/h (3 Bft)
30.07.2014 11:20 21,4 C 22,8 C 75 % 1012,1 hPa 0,0 l/m 2 min 0 min 3,8 UV-I 741 W/m 20,9 km/h (4 Bft)
30.07.2014 11:22 21,6 C 22,8 C 75 % 1012,1 hPa 0,0 l/m 2 min 0 min 3,8 UV-I 735 W/m 20,9 km/h (4 Bft)
30.07.2014 11:24 21,7 C 22,2 C 75 % 1012,1 hPa 0,0 l/m 2 min 0 min 3,9 UV-I 758 W/m 16,7 km/h (3 Bft)
30.07.2014 11:26 21,9 C 22,2 C 77 % 1012,1 hPa 0,0 l/m 2 min 0 min 4,0 UV-I 808 W/m 18,8 km/h (3 Bft)
30.07.2014 11:28 22,0 C 22,2 C 75 % 1012,1 hPa 0,0 l/m 2 min 0 min 4,1 UV-I 811 W/m 23,0 km/h (4 Bft)
30.07.2014 11:30 22,2 C 22,2 C 79 % 1012,1 hPa 0,0 l/m 2 min 0 min 4,2 UV-I 796 W/m 20,9 km/h (4 Bft)
30.07.2014 11:32 22,2 C 22,2 C 75 % 1012,2 hPa 0,0 l/m 2 min 0 min 4,1 UV-I 808 W/m 18,8 km/h (3 Bft)
30.07.2014 11:34 22,2 C 22,8 C 76 % 1012,2 hPa 0,0 l/m 2 min 0 min 4,1 UV-I 790 W/m 23,0 km/h (4 Bft)
30.07.2014 11:36 22,3 C 22,8 C 76 % 1012,2 hPa 0,0 l/m 2 min 0 min 3,1 UV-I 707 W/m 20,9 km/h (4 Bft)
30.07.2014 11:38 22,3 C 23,3 C 77 % 1012,2 hPa 0,0 l/m 2 min 0 min 3,9 UV-I 771 W/m 16,7 km/h (3 Bft)
30.07.2014 11:40 22,1 C 22,2 C 75 % 1012,2 hPa 0,0 l/m 2 min 0 min 2,3 UV-I 527 W/m 23,0 km/h (4 Bft)
30.07.2014 11:42 21,8 C 22,2 C 74 % 1012,2 hPa 0,0 l/m 0 min 0 min 2,7 UV-I 342 W/m 23,0 km/h (4 Bft)
30.07.2014 11:44 21,6 C 22,2 C 74 % 1012,2 hPa 0,0 l/m 2 min 0 min 3,4 UV-I 564 W/m 20,9 km/h (4 Bft)
30.07.2014 11:46 21,4 C 22,8 C 75 % 1012,3 hPa 0,0 l/m 2 min 0 min 3,7 UV-I 645 W/m 16,7 km/h (3 Bft)
30.07.2014 11:48 21,5 C 23,3 C 74 % 1012,3 hPa 0,0 l/m 2 min 0 min 4,0 UV-I 697 W/m 14,6 km/h (3 Bft)
30.07.2014 11:50 21,9 C 24,4 C 77 % 1012,4 hPa 0,0 l/m 2 min 0 min 4,2 UV-I 780 W/m 14,6 km/h (3 Bft)
30.07.2014 11:52 22,1 C 24,4 C 74 % 1012,4 hPa 0,0 l/m 2 min 0 min 4,3 UV-I 770 W/m 27,2 km/h (4 Bft)
30.07.2014 11:54 22,2 C 25,0 C 72 % 1012,4 hPa 0,0 l/m 2 min 0 min 4,3 UV-I 753 W/m 23,0 km/h (4 Bft)
30.07.2014 11:56 22,1 C 25,0 C 72 % 1012,5 hPa 0,0 l/m 2 min 0 min 4,3 UV-I 727 W/m 18,8 km/h (3 Bft)
30.07.2014 11:58 22,0 C 25,0 C 72 % 1012,4 hPa 0,0 l/m 2 min 0 min 4,4 UV-I 757 W/m 25,1 km/h (4 Bft)
30.07.2014 12:00 22,0 C 25,0 C 73 % 1012,4 hPa 0,0 l/m 2 min 0 min 4,3 UV-I 791 W/m 18,8 km/h (3 Bft)
30.07.2014 12:02 22,0 C 24,4 C 73 % 1012,5 hPa 0,0 l/m 2 min 0 min 4,1 UV-I 798 W/m 23,0 km/h (4 Bft)
30.07.2014 12:06 22,5 C 25,6 C 73 % 1012,4 hPa 0,0 l/m 2 min 0 min 4,5 UV-I 789 W/m 23,0 km/h (4 Bft)
30.07.2014 12:08 22,7 C 26,1 C 73 % 1012,4 hPa 0,0 l/m 2 min 0 min 4,1 UV-I 816 W/m 18,8 km/h (3 Bft)
30.07.2014 12:10 22,7 C 25,6 C 71 % 1012,4 hPa 0,0 l/m 2 min 0 min 4,7 UV-I 788 W/m 25,1 km/h (4 Bft)
30.07.2014 12:12 22,9 C 26,1 C 74 % 1012,5 hPa 0,0 l/m 2 min 0 min 4,7 UV-I 787 W/m 14,6 km/h (3 Bft)
30.07.2014 12:14 23,2 C 26,7 C 76 % 1012,4 hPa 0,0 l/m 2 min 0 min 4,8 UV-I 792 W/m 12,6 km/h (3 Bft)
30.07.2014 12:16 23,2 C 26,7 C 72 % 1012,4 hPa 0,0 l/m 2 min 0 min 4,9 UV-I 795 W/m 18,8 km/h (3 Bft)
30.07.2014 12:18 22,9 C 25,6 C 70 % 1012,4 hPa 0,0 l/m 2 min 0 min 4,4 UV-I 825 W/m 20,9 km/h (4 Bft)
30.07.2014 12:20 22,6 C 25,0 C 69 % 1012,5 hPa 0,0 l/m 2 min 0 min 4,4 UV-I 834 W/m 31,4 km/h (5 Bft)
30.07.2014 12:22 22,5 C 25,0 C 70 % 1012,4 hPa 0,0 l/m 2 min 0 min 4,9 UV-I 802 W/m 20,9 km/h (4 Bft)
30.07.2014 12:24 22,4 C 25,0 C 70 % 1012,5 hPa 0,0 l/m 2 min 0 min 5,0 UV-I 795 W/m 18,8 km/h (3 Bft)
30.07.2014 12:26 22,4 C 25,0 C 71 % 1012,4 hPa 0,0 l/m 2 min 0 min 5,0 UV-I 538 W/m 20,9 km/h (4 Bft)
30.07.2014 12:28 22,4 C 25,6 C 70 % 1012,5 hPa 0,0 l/m 0 min 0 min 5,0 UV-I 258 W/m 20,9 km/h (4 Bft)
30.07.2014 12:30 22,7 C 25,0 C 73 % 1012,4 hPa 0,0 l/m 0 min 0 min 3,3 UV-I 252 W/m 12,6 km/h (3 Bft)
30.07.2014 12:32 22,5 C 23,3 C 70 % 1012,5 hPa 0,0 l/m 0 min 0 min 2,4 UV-I 244 W/m 18,8 km/h (3 Bft)
30.07.2014 12:34 22,2 C 23,3 C 69 % 1012,5 hPa 0,0 l/m 0 min 0 min 2,6 UV-I 209 W/m 23,0 km/h (4 Bft)
30.07.2014 12:36 22,0 C 23,3 C 69 % 1012,5 hPa 0,0 l/m 0 min 0 min 3,6 UV-I 207 W/m 20,9 km/h (4 Bft)
30.07.2014 12:38 21,9 C 24,4 C 71 % 1012,5 hPa 0,0 l/m 2 min 0 min 5,1 UV-I 802 W/m 20,9 km/h (4 Bft)
30.07.2014 12:40 22,2 C 25,0 C 71 % 1012,5 hPa 0,0 l/m 2 min 0 min 5,2 UV-I 826 W/m 23,0 km/h (4 Bft)
30.07.2014 12:42 22,5 C 25,6 C 71 % 1012,5 hPa 0,0 l/m 2 min 0 min 5,2 UV-I 773 W/m 23,0 km/h (4 Bft)
30.07.2014 12:44 22,6 C 23,9 C 68 % 1012,5 hPa 0,0 l/m 2 min 0 min 3,7 UV-I 719 W/m 20,9 km/h (4 Bft)
30.07.2014 12:46 22,7 C 24,4 C 70 % 1012,5 hPa 0,0 l/m 2 min 0 min 4,2 UV-I 544 W/m 20,9 km/h (4 Bft)
30.07.2014 12:48 22,8 C 23,9 C 68 % 1012,5 hPa 0,0 l/m 2 min 0 min 5,1 UV-I 418 W/m 20,9 km/h (4 Bft)
30.07.2014 12:50 22,6 C 23,3 C 69 % 1012,6 hPa 0,0 l/m 0 min 0 min 3,3 UV-I 378 W/m 27,2 km/h (4 Bft)
30.07.2014 12:52 22,6 C 23,3 C 68 % 1012,6 hPa 0,0 l/m 2 min 0 min 5,3 UV-I 521 W/m 20,9 km/h (4 Bft)
30.07.2014 12:54 22,6 C 23,9 C 72 % 1012,6 hPa 0,0 l/m 2 min 0 min 3,8 UV-I 715 W/m 14,6 km/h (3 Bft)
30.07.2014 12:56 22,8 C 23,3 C 71 % 1012,5 hPa 0,0 l/m 2 min 0 min 2,6 UV-I 428 W/m 16,7 km/h (3 Bft)
30.07.2014 12:58 22,8 C 23,3 C 69 % 1012,6 hPa 0,0 l/m 2 min 0 min 5,0 UV-I 617 W/m 29,3 km/h (5 Bft)
30.07.2014 13:00 22,8 C 23,3 C 67 % 1012,6 hPa 0,0 l/m 2 min 0 min 5,3 UV-I 827 W/m 25,1 km/h (4 Bft)
30.07.2014 13:02 23,0 C 23,3 C 68 % 1012,5 hPa 0,0 l/m 2 min 0 min 4,2 UV-I 833 W/m 20,9 km/h (4 Bft)
30.07.2014 13:04 23,0 C 23,3 C 68 % 1012,5 hPa 0,0 l/m 2 min 0 min 4,4 UV-I 836 W/m 16,7 km/h (3 Bft)
30.07.2014 13:06 22,9 C 22,8 C 66 % 1012,5 hPa 0,0 l/m 2 min 0 min 3,6 UV-I 846 W/m 16,7 km/h (3 Bft)
30.07.2014 13:08 22,8 C 22,8 C 66 % 1012,6 hPa 0,0 l/m 2 min 0 min 5,0 UV-I 846 W/m 18,8 km/h (3 Bft)
30.07.2014 13:10 22,7 C 22,8 C 67 % 1012,5 hPa 0,0 l/m 2 min 0 min 3,3 UV-I 846 W/m 25,1 km/h (4 Bft)
30.07.2014 13:12 22,7 C 22,2 C 66 % 1012,6 hPa 0,0 l/m 2 min 0 min 4,7 UV-I 846 W/m 20,9 km/h (4 Bft)
30.07.2014 13:14 22,6 C 22,2 C 68 % 1012,5 hPa 0,0 l/m 2 min 0 min 3,9 UV-I 606 W/m 16,7 km/h (3 Bft)
30.07.2014 13:16 22,9 C 22,8 C 68 % 1012,5 hPa 0,0 l/m 2 min 0 min 5,5 UV-I 793 W/m 20,9 km/h (4 Bft)
30.07.2014 13:18 23,1 C 22,8 C 67 % 1012,5 hPa 0,0 l/m 2 min 0 min 5,0 UV-I 859 W/m 20,9 km/h (4 Bft)
30.07.2014 13:20 23,2 C 23,3 C 70 % 1012,5 hPa 0,0 l/m 2 min 0 min 4,3 UV-I 852 W/m 16,7 km/h (3 Bft)
30.07.2014 13:22 23,3 C 23,3 C 66 % 1012,6 hPa 0,0 l/m 2 min 0 min 4,4 UV-I 827 W/m 23,0 km/h (4 Bft)
30.07.2014 13:24 23,6 C 23,3 C 68 % 1012,6 hPa 0,0 l/m 2 min 0 min 5,4 UV-I 832 W/m 20,9 km/h (4 Bft)
30.07.2014 13:26 23,7 C 23,3 C 66 % 1012,6 hPa 0,0 l/m 2 min 0 min 5,3 UV-I 860 W/m 16,7 km/h (3 Bft)
30.07.2014 13:28 23,4 C 23,3 C 65 % 1012,5 hPa 0,0 l/m 2 min 0 min 4,4 UV-I 908 W/m 14,6 km/h (3 Bft)
30.07.2014 13:30 23,3 C 23,3 C 68 % 1012,5 hPa 0,0 l/m 0 min 0 min 4,4 UV-I 355 W/m 14,6 km/h (3 Bft)
30.07.2014 13:32 23,3 C 22,8 C 67 % 1012,6 hPa 0,0 l/m 0 min 0 min 4,9 UV-I 372 W/m 25,1 km/h (4 Bft)
30.07.2014 13:34 23,3 C 22,8 C 66 % 1012,5 hPa 0,0 l/m 2 min 0 min 5,3 UV-I 826 W/m 16,7 km/h (3 Bft)
30.07.2014 13:36 23,3 C 22,8 C 66 % 1012,6 hPa 0,0 l/m 2 min 0 min 5,3 UV-I 826 W/m 27,2 km/h (4 Bft)
30.07.2014 13:38 23,4 C 22,8 C 65 % 1012,6 hPa 0,0 l/m 2 min 0 min 5,3 UV-I 828 W/m 25,1 km/h (4 Bft)
30.07.2014 13:40 23,4 C 23,3 C 65 % 1012,6 hPa 0,0 l/m 2 min 0 min 5,3 UV-I 854 W/m 25,1 km/h (4 Bft)
30.07.2014 13:42 23,4 C 22,8 C 64 % 1012,6 hPa 0,0 l/m 2 min 0 min 4,6 UV-I 902 W/m 18,8 km/h (3 Bft)
30.07.2014 13:44 23,3 C 22,8 C 66 % 1012,6 hPa 0,0 l/m 2 min 0 min 2,7 UV-I 477 W/m 14,6 km/h (3 Bft)
30.07.2014 13:46 23,1 C 22,2 C 66 % 1012,5 hPa 0,0 l/m 0 min 0 min 2,7 UV-I 213 W/m 14,6 km/h (3 Bft)
30.07.2014 13:48 23,0 C 22,8 C 69 % 1012,6 hPa 0,0 l/m 0 min 0 min 3,8 UV-I 273 W/m 14,6 km/h (3 Bft)
30.07.2014 13:50 23,3 C 23,3 C 69 % 1012,6 hPa 0,0 l/m 2 min 0 min 5,3 UV-I 680 W/m 12,6 km/h (3 Bft)
30.07.2014 13:52 23,7 C 23,3 C 69 % 1012,6 hPa 0,0 l/m 2 min 0 min 4,9 UV-I 906 W/m 23,0 km/h (4 Bft)
30.07.2014 13:54 24,1 C 23,3 C 70 % 1012,6 hPa 0,0 l/m 2 min 0 min 5,4 UV-I 867 W/m 18,8 km/h (3 Bft)
30.07.2014 13:56 24,1 C 23,3 C 63 % 1012,7 hPa 0,0 l/m 2 min 0 min 5,4 UV-I 850 W/m 20,9 km/h (4 Bft)
30.07.2014 13:58 24,1 C 23,3 C 68 % 1012,6 hPa 0,0 l/m 2 min 0 min 5,4 UV-I 832 W/m 12,6 km/h (3 Bft)
30.07.2014 14:00 24,2 C 23,3 C 65 % 1012,7 hPa 0,0 l/m 2 min 0 min 5,3 UV-I 833 W/m 8,4 km/h (2 Bft)
30.07.2014 14:02 24,3 C 23,9 C 69 % 1012,6 hPa 0,0 l/m 2 min 0 min 5,3 UV-I 843 W/m 10,5 km/h (2 Bft)
30.07.2014 14:04 24,2 C 23,3 C 65 % 1012,7 hPa 0,0 l/m 2 min 0 min 5,3 UV-I 844 W/m 18,8 km/h (3 Bft)
30.07.2014 14:06 24,5 C 23,9 C 65 % 1012,6 hPa 0,0 l/m 2 min 0 min 5,0 UV-I 841 W/m 14,6 km/h (3 Bft)
30.07.2014 14:08 24,3 C 23,9 C 62 % 1012,6 hPa 0,0 l/m 2 min 0 min 5,3 UV-I 865 W/m 10,5 km/h (2 Bft)
30.07.2014 14:10 24,2 C 23,9 C 66 % 1012,6 hPa 0,0 l/m 2 min 0 min 5,2 UV-I 878 W/m 8,4 km/h (2 Bft)
30.07.2014 14:12 24,1 C 23,9 C 64 % 1012,6 hPa 0,0 l/m 2 min 0 min 4,3 UV-I 884 W/m 14,6 km/h (3 Bft)
30.07.2014 14:14 23,9 C 23,3 C 64 % 1012,6 hPa 0,0 l/m 2 min 0 min 2,8 UV-I 740 W/m 10,5 km/h (2 Bft)
30.07.2014 14:16 23,9 C 23,3 C 66 % 1012,6 hPa 0,0 l/m 0 min 0 min 2,1 UV-I 248 W/m 23,0 km/h (4 Bft)
30.07.2014 14:18 23,8 C 23,3 C 66 % 1012,6 hPa 0,0 l/m 0 min 0 min 2,0 UV-I 262 W/m 20,9 km/h (4 Bft)
30.07.2014 14:20 23,6 C 23,3 C 67 % 1012,6 hPa 0,0 l/m 0 min 0 min 2,0 UV-I 279 W/m 16,7 km/h (3 Bft)
30.07.2014 14:22 23,3 C 22,8 C 66 % 1012,6 hPa 0,0 l/m 0 min 0 min 2,0 UV-I 288 W/m 12,6 km/h (3 Bft)
30.07.2014 14:24 23,2 C 22,8 C 68 % 1012,6 hPa 0,0 l/m 0 min 0 min 1,9 UV-I 280 W/m 14,6 km/h (3 Bft)
30.07.2014 14:26 23,2 C 22,8 C 69 % 1012,6 hPa 0,0 l/m 0 min 0 min 2,0 UV-I 285 W/m 14,6 km/h (3 Bft)
30.07.2014 14:28 23,1 C 22,8 C 68 % 1012,7 hPa 0,0 l/m 0 min 0 min 2,1 UV-I 292 W/m 20,9 km/h (4 Bft)
30.07.2014 14:30 23,0 C 22,8 C 70 % 1012,8 hPa 0,0 l/m 0 min 0 min 2,1 UV-I 297 W/m 14,6 km/h (3 Bft)
30.07.2014 14:32 22,9 C 22,8 C 69 % 1012,8 hPa 0,0 l/m 0 min 0 min 2,2 UV-I 309 W/m 14,6 km/h (3 Bft)
30.07.2014 14:34 23,0 C 22,8 C 70 % 1012,7 hPa 0,0 l/m 0 min 0 min 2,3 UV-I 325 W/m 18,8 km/h (3 Bft)
30.07.2014 14:36 23,0 C 22,8 C 69 % 1012,8 hPa 0,0 l/m 0 min 0 min 2,5 UV-I 337 W/m 18,8 km/h (3 Bft)
30.07.2014 14:38 23,1 C 22,8 C 71 % 1012,8 hPa 0,0 l/m 0 min 0 min 2,5 UV-I 330 W/m 10,5 km/h (2 Bft)
30.07.2014 14:40 23,1 C 22,8 C 69 % 1012,7 hPa 0,0 l/m 0 min 0 min 2,6 UV-I 324 W/m 18,8 km/h (3 Bft)
30.07.2014 14:42 23,1 C 22,8 C 70 % 1012,7 hPa 0,0 l/m 0 min 0 min 3,0 UV-I 336 W/m 14,6 km/h (3 Bft)
30.07.2014 14:44 23,2 C 23,3 C 71 % 1012,6 hPa 0,0 l/m 2 min 0 min 4,5 UV-I 514 W/m 14,6 km/h (3 Bft)
30.07.2014 14:46 23,4 C 23,3 C 68 % 1012,7 hPa 0,0 l/m 2 min 0 min 4,5 UV-I 927 W/m 12,6 km/h (3 Bft)
30.07.2014 14:48 23,5 C 23,3 C 69 % 1012,7 hPa 0,0 l/m 2 min 0 min 2,1 UV-I 804 W/m 8,4 km/h (2 Bft)
30.07.2014 14:50 23,6 C 23,3 C 68 % 1012,6 hPa 0,0 l/m 0 min 0 min 1,3 UV-I 232 W/m 14,6 km/h (3 Bft)
30.07.2014 14:52 23,4 C 22,8 C 68 % 1012,6 hPa 0,0 l/m 0 min 0 min 1,1 UV-I 196 W/m 16,7 km/h (3 Bft)
30.07.2014 14:54 23,1 C 22,2 C 68 % 1012,7 hPa 0,0 l/m 0 min 0 min 0,9 UV-I 176 W/m 18,8 km/h (3 Bft)
30.07.2014 14:56 22,8 C 22,2 C 68 % 1012,6 hPa 0,0 l/m 0 min 0 min 0,8 UV-I 171 W/m 16,7 km/h (3 Bft)
30.07.2014 14:58 22,7 C 21,7 C 69 % 1012,7 hPa 0,0 l/m 0 min 0 min 0,9 UV-I 179 W/m 12,6 km/h (3 Bft)
30.07.2014 15:00 22,6 C 22,2 C 70 % 1012,7 hPa 0,0 l/m 0 min 0 min 1,0 UV-I 183 W/m 16,7 km/h (3 Bft)
30.07.2014 15:02 22,6 C 22,2 C 71 % 1012,7 hPa 0,0 l/m 0 min 0 min 0,9 UV-I 173 W/m 12,6 km/h (3 Bft)
30.07.2014 15:04 22,6 C 21,7 C 71 % 1012,7 hPa 0,0 l/m 0 min 0 min 0,8 UV-I 156 W/m 14,6 km/h (3 Bft)
30.07.2014 15:06 22,6 C 21,7 C 71 % 1012,8 hPa 0,0 l/m 0 min 0 min 0,6 UV-I 141 W/m 14,6 km/h (3 Bft)
30.07.2014 15:08 22,5 C 21,7 C 70 % 1012,7 hPa 0,0 l/m 0 min 0 min 0,4 UV-I 129 W/m 14,6 km/h (3 Bft)
30.07.2014 15:10 22,4 C 21,7 C 71 % 1012,6 hPa 0,0 l/m 0 min 0 min 0,0 UV-I 124 W/m 12,6 km/h (3 Bft)
30.07.2014 15:12 22,4 C 21,7 C 71 % 1012,8 hPa 0,0 l/m 0 min 0 min 0,1 UV-I 125 W/m 12,6 km/h (3 Bft)
30.07.2014 15:14 22,4 C 21,7 C 71 % 1012,7 hPa 0,0 l/m 0 min 0 min 0,5 UV-I 131 W/m 12,6 km/h (3 Bft)
30.07.2014 15:16 22,4 C 21,7 C 72 % 1012,7 hPa 0,0 l/m 0 min 0 min 0,6 UV-I 145 W/m 12,6 km/h (3 Bft)
30.07.2014 15:18 22,3 C 21,7 C 72 % 1012,8 hPa 0,0 l/m 0 min 0 min 0,8 UV-I 157 W/m 8,4 km/h (2 Bft)
30.07.2014 15:20 22,3 C 21,7 C 71 % 1012,8 hPa 0,0 l/m 0 min 0 min 0,8 UV-I 158 W/m 12,6 km/h (3 Bft)
30.07.2014 15:22 22,3 C 21,7 C 71 % 1012,7 hPa 0,0 l/m 0 min 0 min 0,8 UV-I 152 W/m 10,5 km/h (2 Bft)
30.07.2014 15:24 22,3 C 21,7 C 71 % 1012,8 hPa 0,0 l/m 0 min 0 min 0,7 UV-I 146 W/m 12,6 km/h (3 Bft)
30.07.2014 15:26 22,3 C 21,7 C 71 % 1012,8 hPa 0,0 l/m 0 min 0 min 0,6 UV-I 139 W/m 12,6 km/h (3 Bft)
30.07.2014 15:28 22,3 C 21,7 C 72 % 1012,8 hPa 0,0 l/m 0 min 0 min 0,6 UV-I 133 W/m 14,6 km/h (3 Bft)
30.07.2014 15:30 22,3 C 21,7 C 72 % 1012,8 hPa 0,0 l/m 0 min 0 min 0,6 UV-I 128 W/m 12,6 km/h (3 Bft)
30.07.2014 15:32 22,2 C 21,7 C 71 % 1012,8 hPa 0,0 l/m 0 min 0 min 0,6 UV-I 132 W/m 10,5 km/h (2 Bft)
30.07.2014 15:34 22,2 C 21,7 C 70 % 1012,8 hPa 0,0 l/m 0 min 0 min 0,6 UV-I 140 W/m 10,5 km/h (2 Bft)
30.07.2014 15:36 22,2 C 21,7 C 70 % 1012,8 hPa 0,0 l/m 0 min 0 min 0,7 UV-I 152 W/m 12,6 km/h (3 Bft)
30.07.2014 15:38 22,2 C 21,7 C 71 % 1012,8 hPa 0,0 l/m 0 min 0 min 0,7 UV-I 155 W/m 12,6 km/h (3 Bft)
30.07.2014 15:40 22,3 C 21,7 C 72 % 1012,8 hPa 0,0 l/m 0 min 0 min 0,7 UV-I 155 W/m 12,6 km/h (3 Bft)
30.07.2014 15:42 22,3 C 21,7 C 71 % 1012,8 hPa 0,0 l/m 0 min 0 min 0,7 UV-I 152 W/m 12,6 km/h (3 Bft)
30.07.2014 15:44 22,3 C 21,7 C 70 % 1012,8 hPa 0,0 l/m 0 min 0 min 0,6 UV-I 149 W/m 10,5 km/h (2 Bft)
30.07.2014 15:46 22,3 C 21,7 C 69 % 1012,8 hPa 0,0 l/m 0 min 0 min 0,6 UV-I 149 W/m 14,6 km/h (3 Bft)
30.07.2014 15:48 22,3 C 21,7 C 70 % 1012,7 hPa 0,0 l/m 0 min 0 min 0,7 UV-I 153 W/m 12,6 km/h (3 Bft)
30.07.2014 15:50 22,4 C 21,7 C 70 % 1012,7 hPa 0,0 l/m 0 min 0 min 0,7 UV-I 158 W/m 14,6 km/h (3 Bft)
30.07.2014 15:52 22,3 C 21,7 C 69 % 1012,6 hPa 0,0 l/m 0 min 0 min 0,8 UV-I 173 W/m 14,6 km/h (3 Bft)
30.07.2014 15:54 22,3 C 21,7 C 70 % 1012,7 hPa 0,0 l/m 0 min 0 min 0,9 UV-I 190 W/m 14,6 km/h (3 Bft)
30.07.2014 15:56 22,3 C 21,7 C 70 % 1012,7 hPa 0,0 l/m 0 min 0 min 1,0 UV-I 211 W/m 14,6 km/h (3 Bft)
30.07.2014 15:58 22,4 C 21,7 C 70 % 1012,8 hPa 0,0 l/m 0 min 0 min 1,1 UV-I 220 W/m 8,4 km/h (2 Bft)
30.07.2014 16:00 22,4 C 22,2 C 70 % 1012,7 hPa 0,0 l/m 0 min 0 min 1,2 UV-I 218 W/m 12,6 km/h (3 Bft)
30.07.2014 16:02 22,6 C 22,2 C 70 % 1012,8 hPa 0,0 l/m 0 min 0 min 1,2 UV-I 216 W/m 14,6 km/h (3 Bft)
30.07.2014 16:04 22,6 C 22,2 C 68 % 1012,7 hPa 0,0 l/m 0 min 0 min 1,1 UV-I 208 W/m 14,6 km/h (3 Bft)
30.07.2014 16:06 22,6 C 22,2 C 70 % 1012,8 hPa 0,0 l/m 0 min 0 min 1,0 UV-I 200 W/m 8,4 km/h (2 Bft)
30.07.2014 16:08 22,7 C 22,2 C 69 % 1012,8 hPa 0,0 l/m 0 min 0 min 1,0 UV-I 204 W/m 12,6 km/h (3 Bft)
30.07.2014 16:10 22,7 C 22,2 C 69 % 1012,7 hPa 0,0 l/m 0 min 0 min 1,2 UV-I 224 W/m 14,6 km/h (3 Bft)
30.07.2014 16:12 22,8 C 22,2 C 68 % 1012,7 hPa 0,0 l/m 0 min 0 min 1,4 UV-I 245 W/m 14,6 km/h (3 Bft)
30.07.2014 16:14 22,9 C 22,8 C 70 % 1012,7 hPa 0,0 l/m 0 min 0 min 1,6 UV-I 277 W/m 12,6 km/h (3 Bft)
30.07.2014 16:16 23,1 C 22,8 C 68 % 1012,7 hPa 0,0 l/m 2 min 0 min 1,9 UV-I 353 W/m 6,3 km/h (2 Bft)
30.07.2014 16:18 23,2 C 23,3 C 67 % 1012,8 hPa 0,0 l/m 2 min 0 min 2,1 UV-I 350 W/m 25,1 km/h (4 Bft)
30.07.2014 16:20 23,3 C 23,9 C 66 % 1012,8 hPa 0,0 l/m 2 min 0 min 2,8 UV-I 352 W/m 20,9 km/h (4 Bft)
30.07.2014 16:22 23,5 C 23,3 C 69 % 1012,8 hPa 0,0 l/m 0 min 0 min 2,3 UV-I 336 W/m 23,0 km/h (4 Bft)
30.07.2014 16:24 23,7 C 25,0 C 65 % 1012,8 hPa 0,0 l/m 0 min 0 min 2,4 UV-I 304 W/m 18,8 km/h (3 Bft)
30.07.2014 16:26 23,9 C 26,1 C 67 % 1012,8 hPa 0,0 l/m 2 min 0 min 3,1 UV-I 671 W/m 20,9 km/h (4 Bft)
30.07.2014 16:28 24,2 C 26,7 C 66 % 1012,8 hPa 0,0 l/m 2 min 0 min 3,0 UV-I 687 W/m 25,1 km/h (4 Bft)
30.07.2014 16:30 24,6 C 27,8 C 66 % 1012,7 hPa 0,0 l/m 2 min 0 min 3,0 UV-I 668 W/m 14,6 km/h (3 Bft)
30.07.2014 16:32 24,8 C 27,8 C 61 % 1012,8 hPa 0,0 l/m 2 min 0 min 2,9 UV-I 647 W/m 23,0 km/h (4 Bft)
30.07.2014 16:34 24,8 C 27,8 C 63 % 1012,8 hPa 0,0 l/m 2 min 0 min 2,8 UV-I 632 W/m 16,7 km/h (3 Bft)
30.07.2014 16:36 24,8 C 26,7 C 62 % 1012,8 hPa 0,0 l/m 2 min 0 min 2,8 UV-I 624 W/m 25,1 km/h (4 Bft)
30.07.2014 16:38 24,8 C 25,6 C 63 % 1012,8 hPa 0,0 l/m 2 min 0 min 2,8 UV-I 612 W/m 33,5 km/h (5 Bft)
30.07.2014 16:40 24,7 C 25,0 C 62 % 1013,0 hPa 0,0 l/m 2 min 0 min 2,7 UV-I 604 W/m 29,3 km/h (5 Bft)
30.07.2014 16:42 24,6 C 24,4 C 63 % 1012,9 hPa 0,0 l/m 2 min 0 min 2,7 UV-I 597 W/m 25,1 km/h (4 Bft)
30.07.2014 16:44 24,6 C 24,4 C 65 % 1012,8 hPa 0,0 l/m 2 min 0 min 2,6 UV-I 588 W/m 20,9 km/h (4 Bft)
30.07.2014 16:46 24,8 C 24,4 C 64 % 1012,9 hPa 0,0 l/m 2 min 0 min 2,6 UV-I 586 W/m 20,9 km/h (4 Bft)
30.07.2014 16:48 24,9 C 23,9 C 65 % 1013,0 hPa 0,0 l/m 2 min 0 min 2,6 UV-I 579 W/m 16,7 km/h (3 Bft)
30.07.2014 16:50 24,9 C 23,9 C 64 % 1012,9 hPa 0,0 l/m 2 min 0 min 2,5 UV-I 567 W/m 14,6 km/h (3 Bft)
30.07.2014 16:52 24,5 C 23,3 C 61 % 1012,9 hPa 0,0 l/m 2 min 0 min 2,4 UV-I 563 W/m 23,0 km/h (4 Bft)
30.07.2014 16:54 24,5 C 23,3 C 65 % 1012,8 hPa 0,0 l/m 2 min 0 min 2,4 UV-I 555 W/m 16,7 km/h (3 Bft)
30.07.2014 16:56 24,7 C 23,3 C 66 % 1012,8 hPa 0,0 l/m 2 min 0 min 2,3 UV-I 548 W/m 27,2 km/h (4 Bft)
30.07.2014 16:58 24,6 C 23,3 C 64 % 1012,8 hPa 0,0 l/m 2 min 0 min 2,2 UV-I 534 W/m 20,9 km/h (4 Bft)
30.07.2014 17:00 24,5 C 23,3 C 65 % 1012,8 hPa 0,0 l/m 2 min 0 min 2,2 UV-I 540 W/m 18,8 km/h (3 Bft)
30.07.2014 17:02 24,4 C 23,3 C 66 % 1012,9 hPa 0,0 l/m 2 min 0 min 2,2 UV-I 549 W/m 20,9 km/h (4 Bft)
30.07.2014 17:04 24,3 C 23,3 C 65 % 1012,9 hPa 0,0 l/m 2 min 0 min 2,2 UV-I 544 W/m 23,0 km/h (4 Bft)
30.07.2014 17:06 24,1 C 22,8 C 66 % 1012,9 hPa 0,0 l/m 2 min 0 min 1,8 UV-I 520 W/m 25,1 km/h (4 Bft)
30.07.2014 17:08 24,0 C 22,8 C 66 % 1013,0 hPa 0,0 l/m 2 min 0 min 2,1 UV-I 529 W/m 18,8 km/h (3 Bft)
30.07.2014 17:10 23,9 C 22,8 C 66 % 1013,0 hPa 0,0 l/m 2 min 0 min 2,0 UV-I 528 W/m 18,8 km/h (3 Bft)
30.07.2014 17:12 24,0 C 22,8 C 68 % 1012,8 hPa 0,0 l/m 2 min 0 min 2,0 UV-I 533 W/m 16,7 km/h (3 Bft)
30.07.2014 17:14 24,2 C 22,8 C 67 % 1012,9 hPa 0,0 l/m 2 min 0 min 1,9 UV-I 527 W/m 14,6 km/h (3 Bft)
30.07.2014 17:16 24,2 C 22,8 C 69 % 1012,9 hPa 0,0 l/m 2 min 0 min 1,9 UV-I 532 W/m 12,6 km/h (3 Bft)
30.07.2014 17:18 24,2 C 22,8 C 67 % 1012,9 hPa 0,0 l/m 2 min 0 min 1,6 UV-I 512 W/m 23,0 km/h (4 Bft)
30.07.2014 17:20 24,0 C 22,8 C 66 % 1012,9 hPa 0,0 l/m 0 min 0 min 1,2 UV-I 154 W/m 20,9 km/h (4 Bft)
30.07.2014 17:22 23,6 C 22,2 C 67 % 1012,9 hPa 0,0 l/m 0 min 0 min 1,0 UV-I 135 W/m 20,9 km/h (4 Bft)
30.07.2014 17:24 23,2 C 22,2 C 68 % 1012,9 hPa 0,0 l/m 0 min 0 min 1,0 UV-I 143 W/m 20,9 km/h (4 Bft)
30.07.2014 17:26 23,0 C 22,2 C 70 % 1013,0 hPa 0,0 l/m 0 min 0 min 1,0 UV-I 158 W/m 14,6 km/h (3 Bft)
30.07.2014 17:28 22,8 C 21,7 C 69 % 1013,0 hPa 0,0 l/m 0 min 0 min 0,9 UV-I 170 W/m 14,6 km/h (3 Bft)
30.07.2014 17:30 22,7 C 21,7 C 69 % 1013,0 hPa 0,0 l/m 0 min 0 min 0,8 UV-I 181 W/m 14,6 km/h (3 Bft)
30.07.2014 17:32 22,7 C 22,2 C 69 % 1012,9 hPa 0,0 l/m 0 min 0 min 0,8 UV-I 198 W/m 12,6 km/h (3 Bft)
30.07.2014 17:34 22,7 C 22,2 C 72 % 1012,9 hPa 0,0 l/m 0 min 0 min 0,8 UV-I 211 W/m 10,5 km/h (2 Bft)
30.07.2014 17:36 22,8 C 22,2 C 72 % 1012,9 hPa 0,0 l/m 0 min 0 min 0,8 UV-I 213 W/m 8,4 km/h (2 Bft)
30.07.2014 17:38 22,9 C 22,8 C 72 % 1012,9 hPa 0,0 l/m 0 min 0 min 0,7 UV-I 214 W/m 12,6 km/h (3 Bft)
30.07.2014 17:40 22,9 C 22,2 C 70 % 1012,9 hPa 0,0 l/m 0 min 0 min 0,7 UV-I 215 W/m 12,6 km/h (3 Bft)
30.07.2014 17:42 22,9 C 22,2 C 72 % 1012,9 hPa 0,0 l/m 0 min 0 min 0,6 UV-I 202 W/m 10,5 km/h (2 Bft)
30.07.2014 17:44 22,9 C 22,8 C 71 % 1012,9 hPa 0,0 l/m 0 min 0 min 0,6 UV-I 202 W/m 18,8 km/h (3 Bft)
30.07.2014 17:46 22,9 C 22,2 C 70 % 1012,9 hPa 0,0 l/m 0 min 0 min 0,6 UV-I 210 W/m 12,6 km/h (3 Bft)
30.07.2014 17:48 22,8 C 22,2 C 71 % 1013,0 hPa 0,0 l/m 0 min 0 min 0,6 UV-I 211 W/m 14,6 km/h (3 Bft)
30.07.2014 17:50 22,8 C 22,2 C 71 % 1013,0 hPa 0,0 l/m 0 min 0 min 0,5 UV-I 211 W/m 16,7 km/h (3 Bft)
30.07.2014 17:52 22,7 C 22,2 C 71 % 1012,9 hPa 0,0 l/m 0 min 0 min 0,5 UV-I 210 W/m 12,6 km/h (3 Bft)
30.07.2014 17:54 22,8 C 22,2 C 72 % 1012,9 hPa 0,0 l/m 0 min 0 min 0,5 UV-I 209 W/m 8,4 km/h (2 Bft)
30.07.2014 17:56 22,8 C 22,2 C 70 % 1012,9 hPa 0,0 l/m 0 min 0 min 0,5 UV-I 219 W/m 10,5 km/h (2 Bft)
30.07.2014 17:58 22,7 C 22,2 C 71 % 1012,9 hPa 0,0 l/m 0 min 0 min 0,5 UV-I 228 W/m 6,3 km/h (2 Bft)
30.07.2014 18:00 22,8 C 22,2 C 70 % 1012,9 hPa 0,0 l/m 0 min 0 min 0,5 UV-I 235 W/m 12,6 km/h (3 Bft)
30.07.2014 18:02 22,8 C 22,2 C 69 % 1012,9 hPa 0,0 l/m 0 min 0 min 0,5 UV-I 229 W/m 14,6 km/h (3 Bft)
30.07.2014 18:06 22,7 C 22,2 C 70 % 1012,9 hPa 0,0 l/m 0 min 0 min 0,2 UV-I 206 W/m 14,6 km/h (3 Bft)
30.07.2014 18:08 22,7 C 22,2 C 69 % 1012,9 hPa 0,0 l/m 0 min 0 min 0,0 UV-I 190 W/m 6,3 km/h (2 Bft)
30.07.2014 18:10 22,7 C 22,2 C 70 % 1012,9 hPa 0,0 l/m 2 min 0 min 0,0 UV-I 300 W/m 6,3 km/h (2 Bft)
30.07.2014 18:12 22,8 C 22,2 C 70 % 1012,9 hPa 0,0 l/m 2 min 0 min 0,0 UV-I 323 W/m 0,0 km/h (0 Bft)
30.07.2014 18:14 22,8 C 22,2 C 70 % 1012,9 hPa 0,0 l/m 2 min 0 min 0,0 UV-I 239 W/m 2,1 km/h (1 Bft)
30.07.2014 18:16 22,8 C 22,2 C 70 % 1012,8 hPa 0,0 l/m 0 min 0 min 0,0 UV-I 186 W/m 8,4 km/h (2 Bft)
30.07.2014 18:18 22,8 C 21,7 C 70 % 1012,8 hPa 0,0 l/m 0 min 0 min 0,0 UV-I 177 W/m 10,5 km/h (2 Bft)
30.07.2014 18:20 22,8 C 21,7 C 71 % 1012,8 hPa 0,0 l/m 2 min 0 min 0,0 UV-I 251 W/m 8,4 km/h (2 Bft)
30.07.2014 18:22 22,8 C 21,7 C 70 % 1012,8 hPa 0,0 l/m 0 min 0 min 0,0 UV-I 181 W/m 2,1 km/h (1 Bft)
30.07.2014 18:24 22,8 C 21,7 C 70 % 1012,7 hPa 0,0 l/m 2 min 0 min 0,0 UV-I 215 W/m 8,4 km/h (2 Bft)
30.07.2014 18:26 22,8 C 22,2 C 70 % 1012,8 hPa 0,0 l/m 2 min 0 min 0,0 UV-I 256 W/m 12,6 km/h (3 Bft)
30.07.2014 18:28 22,9 C 22,2 C 71 % 1012,8 hPa 0,0 l/m 2 min 0 min 0,0 UV-I 350 W/m 12,6 km/h (3 Bft)
30.07.2014 18:30 23,1 C 22,2 C 70 % 1012,8 hPa 0,0 l/m 2 min 0 min 0,0 UV-I 409 W/m 12,6 km/h (3 Bft)
30.07.2014 18:32 23,3 C 22,8 C 71 % 1012,8 hPa 0,0 l/m 2 min 0 min 0,0 UV-I 412 W/m 18,8 km/h (3 Bft)
30.07.2014 18:34 23,4 C 22,8 C 68 % 1012,8 hPa 0,0 l/m 2 min 0 min 0,0 UV-I 402 W/m 20,9 km/h (4 Bft)
30.07.2014 18:36 23,5 C 22,8 C 67 % 1012,8 hPa 0,0 l/m 2 min 0 min 0,0 UV-I 396 W/m 23,0 km/h (4 Bft)
30.07.2014 18:38 23,6 C 22,8 C 68 % 1012,8 hPa 0,0 l/m 2 min 0 min 0,0 UV-I 395 W/m 23,0 km/h (4 Bft)
30.07.2014 18:40 23,7 C 22,8 C 68 % 1012,7 hPa 0,0 l/m 2 min 0 min 0,0 UV-I 345 W/m 23,0 km/h (4 Bft)
30.07.2014 18:42 23,7 C 22,8 C 67 % 1012,8 hPa 0,0 l/m 2 min 0 min 0,0 UV-I 273 W/m 18,8 km/h (3 Bft)
30.07.2014 18:44 23,7 C 22,2 C 67 % 1012,8 hPa 0,0 l/m 2 min 0 min 0,0 UV-I 233 W/m 20,9 km/h (4 Bft)
30.07.2014 18:46 23,6 C 22,2 C 68 % 1012,8 hPa 0,0 l/m 2 min 0 min 0,0 UV-I 244 W/m 18,8 km/h (3 Bft)
30.07.2014 18:48 23,3 C 21,7 C 67 % 1012,8 hPa 0,0 l/m 2 min 0 min 0,0 UV-I 225 W/m 23,0 km/h (4 Bft)
30.07.2014 18:50 23,2 C 21,7 C 69 % 1012,8 hPa 0,0 l/m 2 min 0 min 0,0 UV-I 206 W/m 25,1 km/h (4 Bft)
30.07.2014 18:52 22,9 C 21,7 C 68 % 1012,8 hPa 0,0 l/m 0 min 0 min 0,0 UV-I 174 W/m 25,1 km/h (4 Bft)
30.07.2014 18:54 22,8 C 21,1 C 69 % 1012,8 hPa 0,0 l/m 0 min 0 min 0,0 UV-I 131 W/m 18,8 km/h (3 Bft)
30.07.2014 18:56 22,7 C 21,1 C 70 % 1012,9 hPa 0,0 l/m 0 min 0 min 0,0 UV-I 126 W/m 18,8 km/h (3 Bft)
30.07.2014 18:58 22,6 C 21,1 C 69 % 1012,9 hPa 0,0 l/m 0 min 0 min 0,0 UV-I 135 W/m 27,2 km/h (4 Bft)
30.07.2014 19:00 22,4 C 21,1 C 69 % 1012,9 hPa 0,0 l/m 0 min 0 min 0,0 UV-I 107 W/m 20,9 km/h (4 Bft)
30.07.2014 19:02 22,3 C 20,6 C 69 % 1012,8 hPa 0,0 l/m 0 min 0 min 0,0 UV-I 86 W/m 18,8 km/h (3 Bft)
30.07.2014 19:04 22,2 C 20,6 C 71 % 1012,9 hPa 0,0 l/m 0 min 0 min 0,0 UV-I 79 W/m 16,7 km/h (3 Bft)
30.07.2014 19:06 22,1 C 20,6 C 72 % 1012,9 hPa 0,0 l/m 0 min 0 min 0,0 UV-I 79 W/m 14,6 km/h (3 Bft)
30.07.2014 19:08 21,9 C 20,6 C 73 % 1012,9 hPa 0,0 l/m 0 min 0 min 0,0 UV-I 84 W/m 10,5 km/h (2 Bft)
30.07.2014 19:10 21,9 C 20,6 C 72 % 1012,9 hPa 0,0 l/m 0 min 0 min 0,0 UV-I 109 W/m 8,4 km/h (2 Bft)
30.07.2014 19:12 21,9 C 20,6 C 73 % 1012,9 hPa 0,0 l/m 2 min 0 min 0,0 UV-I 166 W/m 18,8 km/h (3 Bft)
30.07.2014 19:14 21,8 C 20,6 C 72 % 1013,0 hPa 0,0 l/m 2 min 0 min 0,0 UV-I 201 W/m 16,7 km/h (3 Bft)
30.07.2014 19:16 21,9 C 20,6 C 72 % 1013,0 hPa 0,0 l/m 2 min 0 min 0,0 UV-I 227 W/m 12,6 km/h (3 Bft)
30.07.2014 19:18 22,1 C 21,1 C 73 % 1013,0 hPa 0,0 l/m 2 min 0 min 0,0 UV-I 241 W/m 12,6 km/h (3 Bft)
30.07.2014 19:20 22,2 C 21,1 C 72 % 1013,0 hPa 0,0 l/m 2 min 0 min 0,0 UV-I 222 W/m 14,6 km/h (3 Bft)
30.07.2014 19:22 22,2 C 21,1 C 71 % 1013,0 hPa 0,0 l/m 2 min 0 min 0,0 UV-I 225 W/m 18,8 km/h (3 Bft)
30.07.2014 19:24 22,3 C 21,1 C 72 % 1013,0 hPa 0,0 l/m 2 min 0 min 0,0 UV-I 201 W/m 12,6 km/h (3 Bft)
30.07.2014 19:26 22,3 C 21,1 C 72 % 1013,0 hPa 0,0 l/m 2 min 0 min 0,0 UV-I 165 W/m 14,6 km/h (3 Bft)
30.07.2014 19:28 22,3 C 21,1 C 73 % 1013,0 hPa 0,0 l/m 2 min 0 min 0,0 UV-I 150 W/m 10,5 km/h (2 Bft)
30.07.2014 19:30 22,3 C 21,1 C 73 % 1013,1 hPa 0,0 l/m 0 min 0 min 0,0 UV-I 132 W/m 14,6 km/h (3 Bft)
30.07.2014 19:32 22,2 C 21,1 C 74 % 1013,1 hPa 0,0 l/m 0 min 0 min 0,0 UV-I 124 W/m 12,6 km/h (3 Bft)
30.07.2014 19:34 22,2 C 21,1 C 74 % 1013,1 hPa 0,0 l/m 0 min 0 min 0,0 UV-I 108 W/m 8,4 km/h (2 Bft)
30.07.2014 19:36 22,1 C 21,1 C 75 % 1013,1 hPa 0,0 l/m 0 min 0 min 0,0 UV-I 92 W/m 12,6 km/h (3 Bft)
30.07.2014 19:38 22,0 C 21,1 C 75 % 1013,2 hPa 0,0 l/m 0 min 0 min 0,0 UV-I 85 W/m 12,6 km/h (3 Bft)
30.07.2014 19:40 21,9 C 20,6 C 74 % 1013,2 hPa 0,0 l/m 0 min 0 min 0,0 UV-I 78 W/m 14,6 km/h (3 Bft)
30.07.2014 19:42 21,9 C 20,6 C 74 % 1013,2 hPa 0,0 l/m 0 min 0 min 0,0 UV-I 69 W/m 14,6 km/h (3 Bft)
30.07.2014 19:44 21,9 C 20,6 C 75 % 1013,2 hPa 0,0 l/m 0 min 0 min 0,0 UV-I 57 W/m 18,8 km/h (3 Bft)
30.07.2014 19:46 21,8 C 20,6 C 75 % 1013,3 hPa 0,0 l/m 0 min 0 min 0,0 UV-I 50 W/m 10,5 km/h (2 Bft)
30.07.2014 19:48 21,8 C 20,6 C 75 % 1013,3 hPa 0,0 l/m 0 min 0 min 0,0 UV-I 49 W/m 12,6 km/h (3 Bft)
30.07.2014 19:50 21,7 C 20,6 C 76 % 1013,3 hPa 0,0 l/m 0 min 0 min 0,0 UV-I 53 W/m 12,6 km/h (3 Bft)
30.07.2014 19:52 21,7 C 20,6 C 76 % 1013,3 hPa 0,0 l/m 0 min 0 min 0,0 UV-I 60 W/m 12,6 km/h (3 Bft)
30.07.2014 19:54 21,7 C 20,6 C 76 % 1013,3 hPa 0,0 l/m 0 min 0 min 0,0 UV-I 62 W/m 12,6 km/h (3 Bft)
30.07.2014 19:56 21,6 C 20,6 C 75 % 1013,3 hPa 0,0 l/m 0 min 0 min 0,0 UV-I 62 W/m 12,6 km/h (3 Bft)
30.07.2014 19:58 21,6 C 20,6 C 76 % 1013,3 hPa 0,0 l/m 0 min 0 min 0,0 UV-I 70 W/m 16,7 km/h (3 Bft)
30.07.2014 20:00 21,6 C 20,6 C 76 % 1013,3 hPa 0,0 l/m 0 min 0 min 0,0 UV-I 74 W/m 6,3 km/h (2 Bft)
30.07.2014 20:02 21,7 C 20,6 C 77 % 1013,3 hPa 0,0 l/m 0 min 0 min 0,0 UV-I 88 W/m 8,4 km/h (2 Bft)
30.07.2014 20:04 21,7 C 20,6 C 77 % 1013,3 hPa 0,0 l/m 2 min 0 min 0,0 UV-I 98 W/m 10,5 km/h (2 Bft)
30.07.2014 20:06 21,7 C 20,6 C 77 % 1013,3 hPa 0,0 l/m 2 min 0 min 0,0 UV-I 113 W/m 8,4 km/h (2 Bft)
30.07.2014 20:08 21,7 C 20,6 C 76 % 1013,3 hPa 0,0 l/m 2 min 0 min 0,0 UV-I 112 W/m 12,6 km/h (3 Bft)
30.07.2014 20:10 21,8 C 20,6 C 75 % 1013,3 hPa 0,0 l/m 2 min 0 min 0,0 UV-I 103 W/m 2,1 km/h (1 Bft)
30.07.2014 20:12 21,8 C 20,6 C 75 % 1013,4 hPa 0,0 l/m 2 min 0 min 0,0 UV-I 98 W/m 10,5 km/h (2 Bft)
30.07.2014 20:14 21,8 C 20,6 C 75 % 1013,4 hPa 0,0 l/m 2 min 0 min 0,0 UV-I 97 W/m 12,6 km/h (3 Bft)
30.07.2014 20:16 21,8 C 20,6 C 75 % 1013,4 hPa 0,0 l/m 2 min 0 min 0,0 UV-I 88 W/m 4,2 km/h (1 Bft)
30.07.2014 20:18 21,8 C 20,6 C 76 % 1013,4 hPa 0,0 l/m 2 min 0 min 0,0 UV-I 73 W/m 8,4 km/h (2 Bft)
30.07.2014 20:20 21,7 C 20,6 C 76 % 1013,4 hPa 0,0 l/m 0 min 0 min 0,0 UV-I 64 W/m 8,4 km/h (2 Bft)
30.07.2014 20:22 21,6 C 20,6 C 77 % 1013,4 hPa 0,0 l/m 0 min 0 min 0,0 UV-I 53 W/m 8,4 km/h (2 Bft)
30.07.2014 20:24 21,6 C 20,0 C 76 % 1013,4 hPa 0,0 l/m 0 min 0 min 0,0 UV-I 44 W/m 8,4 km/h (2 Bft)
30.07.2014 20:26 21,5 C 20,0 C 75 % 1013,5 hPa 0,0 l/m 0 min 0 min 0,0 UV-I 40 W/m 8,4 km/h (2 Bft)
30.07.2014 20:28 21,4 C 20,0 C 76 % 1013,4 hPa 0,0 l/m 0 min 0 min 0,0 UV-I 39 W/m 10,5 km/h (2 Bft)
30.07.2014 20:30 21,3 C 20,0 C 76 % 1013,4 hPa 0,0 l/m 0 min 0 min 0,0 UV-I 37 W/m 10,5 km/h (2 Bft)
30.07.2014 20:32 21,3 C 20,0 C 76 % 1013,5 hPa 0,0 l/m 0 min 0 min 0,0 UV-I 34 W/m 10,5 km/h (2 Bft)
30.07.2014 20:34 21,2 C 19,4 C 76 % 1013,5 hPa 0,0 l/m 0 min 0 min 0,0 UV-I 32 W/m 12,6 km/h (3 Bft)
30.07.2014 20:36 21,1 C 19,4 C 77 % 1013,5 hPa 0,0 l/m 0 min 0 min 0,0 UV-I 34 W/m 10,5 km/h (2 Bft)
30.07.2014 20:38 21,1 C 19,4 C 77 % 1013,5 hPa 0,0 l/m 0 min 0 min 0,0 UV-I 40 W/m 10,5 km/h (2 Bft)
30.07.2014 20:40 21,0 C 19,4 C 78 % 1013,6 hPa 0,0 l/m 2 min 0 min 0,0 UV-I 47 W/m 8,4 km/h (2 Bft)
30.07.2014 20:42 21,0 C 19,4 C 78 % 1013,7 hPa 0,0 l/m 2 min 0 min 0,0 UV-I 44 W/m 8,4 km/h (2 Bft)
30.07.2014 20:44 21,0 C 19,4 C 77 % 1013,6 hPa 0,0 l/m 0 min 0 min 0,0 UV-I 35 W/m 8,4 km/h (2 Bft)
30.07.2014 20:46 20,9 C 19,4 C 78 % 1013,6 hPa 0,0 l/m 0 min 0 min 0,0 UV-I 30 W/m 8,4 km/h (2 Bft)
30.07.2014 20:48 20,9 C 19,4 C 78 % 1013,6 hPa 0,0 l/m 0 min 0 min 0,0 UV-I 27 W/m 12,6 km/h (3 Bft)
30.07.2014 20:50 20,8 C 19,4 C 78 % 1013,7 hPa 0,0 l/m 0 min 0 min 0,0 UV-I 22 W/m 0,0 km/h (0 Bft)
30.07.2014 20:52 20,8 C 19,4 C 79 % 1013,7 hPa 0,0 l/m 0 min 0 min 0,0 UV-I 20 W/m 0,0 km/h (0 Bft)
30.07.2014 20:54 20,7 C 18,9 C 79 % 1013,7 hPa 0,0 l/m 0 min 0 min 0,0 UV-I 19 W/m 2,1 km/h (1 Bft)
30.07.2014 20:56 20,6 C 18,9 C 79 % 1013,8 hPa 0,0 l/m 0 min 0 min 0,0 UV-I 21 W/m 2,1 km/h (1 Bft)
30.07.2014 20:58 20,6 C 18,9 C 79 % 1013,8 hPa 0,0 l/m 0 min 0 min 0,0 UV-I 19 W/m 0,0 km/h (0 Bft)
30.07.2014 21:00 20,5 C 18,9 C 79 % 1013,8 hPa 0,0 l/m 0 min 0 min 0,0 UV-I 19 W/m 10,5 km/h (2 Bft)
30.07.2014 21:02 20,4 C 18,9 C 80 % 1013,9 hPa 0,0 l/m 0 min 0 min 0,0 UV-I 18 W/m 8,4 km/h (2 Bft)
30.07.2014 21:04 20,3 C 18,9 C 80 % 1013,8 hPa 0,0 l/m 2 min 0 min 0,0 UV-I 18 W/m 4,2 km/h (1 Bft)
30.07.2014 21:06 20,3 C 18,3 C 80 % 1013,9 hPa 0,0 l/m 2 min 0 min 0,0 UV-I 16 W/m 6,3 km/h (2 Bft)
30.07.2014 21:08 20,3 C 18,3 C 80 % 1013,9 hPa 0,0 l/m 2 min 0 min 0,0 UV-I 16 W/m 8,4 km/h (2 Bft)
30.07.2014 21:10 20,3 C 18,3 C 80 % 1013,9 hPa 0,0 l/m 2 min 0 min 0,0 UV-I 15 W/m 12,6 km/h (3 Bft)
30.07.2014 21:12 20,2 C 18,3 C 80 % 1013,9 hPa 0,0 l/m 0 min 0 min 0,0 UV-I 12 W/m 14,6 km/h (3 Bft)
30.07.2014 21:14 20,2 C 18,3 C 80 % 1013,9 hPa 0,0 l/m 0 min 0 min 0,0 UV-I 11 W/m 10,5 km/h (2 Bft)
30.07.2014 21:16 20,2 C 18,3 C 80 % 1013,9 hPa 0,0 l/m 0 min 0 min 0,0 UV-I 10 W/m 8,4 km/h (2 Bft)
30.07.2014 21:18 20,1 C 18,3 C 80 % 1013,9 hPa 0,0 l/m 0 min 0 min 0,0 UV-I 9 W/m 6,3 km/h (2 Bft)
30.07.2014 21:20 20,1 C 18,3 C 80 % 1014,0 hPa 0,0 l/m 0 min 0 min 0,0 UV-I 8 W/m 6,3 km/h (2 Bft)
30.07.2014 21:22 19,9 C 18,3 C 81 % 1014,0 hPa 0,0 l/m 0 min 0 min 0,0 UV-I 7 W/m 4,2 km/h (1 Bft)
30.07.2014 21:24 19,8 C 17,8 C 81 % 1014,0 hPa 0,0 l/m 0 min 0 min 0,0 UV-I 6 W/m 8,4 km/h (2 Bft)
30.07.2014 21:26 19,7 C 17,8 C 81 % 1014,1 hPa 0,0 l/m 0 min 0 min 0,0 UV-I 5 W/m 12,6 km/h (3 Bft)
30.07.2014 21:28 19,7 C 17,8 C 81 % 1014,1 hPa 0,0 l/m 0 min 0 min 0,0 UV-I 5 W/m 12,6 km/h (3 Bft)
30.07.2014 21:30 19,6 C 17,8 C 81 % 1014,2 hPa 0,0 l/m 0 min 0 min 0,0 UV-I 5 W/m 14,6 km/h (3 Bft)
30.07.2014 21:32 19,5 C 17,8 C 81 % 1014,2 hPa 0,0 l/m 0 min 0 min 0,0 UV-I 0 W/m 8,4 km/h (2 Bft)
30.07.2014 21:34 19,6 C 17,8 C 81 % 1014,2 hPa 0,0 l/m 0 min 0 min 0,0 UV-I 0 W/m 12,6 km/h (3 Bft)
30.07.2014 21:36 19,5 C 17,8 C 81 % 1014,2 hPa 0,0 l/m 0 min 0 min 0,0 UV-I 0 W/m 12,6 km/h (3 Bft)
30.07.2014 21:38 19,4 C 17,8 C 81 % 1014,2 hPa 0,0 l/m 0 min 0 min 0,0 UV-I 0 W/m 14,6 km/h (3 Bft)
30.07.2014 21:40 19,4 C 17,8 C 81 % 1014,3 hPa 0,0 l/m 0 min 0 min 0,0 UV-I 0 W/m 10,5 km/h (2 Bft)
30.07.2014 21:42 19,3 C 17,8 C 82 % 1014,3 hPa 0,0 l/m 0 min 0 min 0,0 UV-I 0 W/m 14,6 km/h (3 Bft)
30.07.2014 21:44 19,2 C 17,8 C 82 % 1014,3 hPa 0,0 l/m 0 min 0 min 0,0 UV-I 0 W/m 12,6 km/h (3 Bft)
30.07.2014 21:46 19,2 C 17,8 C 82 % 1014,3 hPa 0,0 l/m 0 min 0 min 0,0 UV-I 0 W/m 8,4 km/h (2 Bft)
30.07.2014 21:48 19,1 C 17,2 C 83 % 1014,3 hPa 0,0 l/m 0 min 0 min 0,0 UV-I 0 W/m 8,4 km/h (2 Bft)
30.07.2014 21:50 19,1 C 17,2 C 83 % 1014,3 hPa 0,0 l/m 0 min 0 min 0,0 UV-I 0 W/m 8,4 km/h (2 Bft)
30.07.2014 21:52 19,0 C 17,2 C 83 % 1014,3 hPa 0,0 l/m 0 min 0 min 0,0 UV-I 0 W/m 10,5 km/h (2 Bft)
30.07.2014 21:54 18,9 C 17,2 C 83 % 1014,4 hPa 0,0 l/m 0 min 0 min 0,0 UV-I 0 W/m 12,6 km/h (3 Bft)
30.07.2014 21:56 18,8 C 17,2 C 84 % 1014,5 hPa 0,0 l/m 0 min 0 min 0,0 UV-I 0 W/m 8,4 km/h (2 Bft)
30.07.2014 21:58 18,8 C 17,2 C 84 % 1014,5 hPa 0,0 l/m 0 min 0 min 0,0 UV-I 0 W/m 2,1 km/h (1 Bft)
30.07.2014 22:00 18,7 C 16,7 C 84 % 1014,5 hPa 0,0 l/m 0 min 0 min 0,0 UV-I 0 W/m 8,4 km/h (2 Bft)
30.07.2014 22:02 18,7 C 16,7 C 84 % 1014,5 hPa 0,0 l/m 0 min 0 min 0,0 UV-I 0 W/m 6,3 km/h (2 Bft)
30.07.2014 22:04 18,6 C 16,7 C 85 % 1014,5 hPa 0,0 l/m 0 min 0 min 0,0 UV-I 0 W/m 6,3 km/h (2 Bft)
30.07.2014 22:06 18,5 C 16,7 C 85 % 1014,6 hPa 0,0 l/m 0 min 0 min 0,0 UV-I 0 W/m 0,0 km/h (0 Bft)
30.07.2014 22:08 18,4 C 16,7 C 85 % 1014,5 hPa 0,0 l/m 0 min 0 min 0,0 UV-I 0 W/m 0,0 km/h (0 Bft)
30.07.2014 22:10 18,4 C 16,7 C 85 % 1014,5 hPa 0,0 l/m 0 min 0 min 0,0 UV-I 0 W/m 0,0 km/h (0 Bft)
30.07.2014 22:12 18,3 C 16,7 C 86 % 1014,6 hPa 0,0 l/m 0 min 0 min 0,0 UV-I 0 W/m 0,0 km/h (0 Bft)
30.07.2014 22:14 18,3 C 16,7 C 86 % 1014,6 hPa 0,0 l/m 0 min 0 min 0,0 UV-I 0 W/m 0,0 km/h (0 Bft)
30.07.2014 22:16 18,2 C 16,1 C 86 % 1014,6 hPa 0,0 l/m 0 min 0 min 0,0 UV-I 0 W/m 0,0 km/h (0 Bft)
30.07.2014 22:18 18,1 C 16,1 C 86 % 1014,6 hPa 0,0 l/m 0 min 0 min 0,0 UV-I 0 W/m 2,1 km/h (1 Bft)
30.07.2014 22:20 18,1 C 16,1 C 87 % 1014,7 hPa 0,0 l/m 0 min 0 min 0,0 UV-I 0 W/m 0,0 km/h (0 Bft)
30.07.2014 22:22 18,0 C 16,1 C 87 % 1014,7 hPa 0,0 l/m 0 min 0 min 0,0 UV-I 0 W/m 0,0 km/h (0 Bft)
30.07.2014 22:24 17,9 C 16,1 C 87 % 1014,7 hPa 0,0 l/m 0 min 0 min 0,0 UV-I 0 W/m 8,4 km/h (2 Bft)
30.07.2014 22:26 17,9 C 16,1 C 87 % 1014,7 hPa 0,0 l/m 0 min 0 min 0,0 UV-I 0 W/m 4,2 km/h (1 Bft)
30.07.2014 22:28 17,9 C 16,1 C 87 % 1014,7 hPa 0,0 l/m 0 min 0 min 0,0 UV-I 0 W/m 2,1 km/h (1 Bft)
30.07.2014 22:30 17,8 C 16,1 C 87 % 1014,7 hPa 0,0 l/m 0 min 0 min 0,0 UV-I 0 W/m 0,0 km/h (0 Bft)
30.07.2014 22:32 17,8 C 16,1 C 88 % 1014,7 hPa 0,0 l/m 0 min 0 min 0,0 UV-I 0 W/m 0,0 km/h (0 Bft)
30.07.2014 22:34 17,8 C 16,1 C 88 % 1014,7 hPa 0,0 l/m 0 min 0 min 0,0 UV-I 0 W/m 0,0 km/h (0 Bft)
30.07.2014 22:36 17,7 C 16,1 C 88 % 1014,8 hPa 0,0 l/m 0 min 0 min 0,0 UV-I 0 W/m 6,3 km/h (2 Bft)
30.07.2014 22:38 17,7 C 16,1 C 88 % 1014,8 hPa 0,0 l/m 0 min 0 min 0,0 UV-I 0 W/m 4,2 km/h (1 Bft)
30.07.2014 22:40 17,6 C 16,1 C 88 % 1014,8 hPa 0,0 l/m 0 min 0 min 0,0 UV-I 0 W/m 2,1 km/h (1 Bft)
30.07.2014 22:42 17,6 C 15,6 C 88 % 1014,8 hPa 0,0 l/m 0 min 0 min 0,0 UV-I 0 W/m 0,0 km/h (0 Bft)
30.07.2014 22:44 17,6 C 15,6 C 88 % 1014,8 hPa 0,0 l/m 0 min 0 min 0,0 UV-I 0 W/m 0,0 km/h (0 Bft)
30.07.2014 22:46 17,4 C 15,6 C 89 % 1014,8 hPa 0,0 l/m 0 min 0 min 0,0 UV-I 0 W/m 0,0 km/h (0 Bft)
30.07.2014 22:48 17,4 C 15,6 C 89 % 1014,9 hPa 0,0 l/m 0 min 0 min 0,0 UV-I 0 W/m 6,3 km/h (2 Bft)
30.07.2014 22:50 17,4 C 15,6 C 89 % 1014,9 hPa 0,0 l/m 0 min 0 min 0,0 UV-I 0 W/m 6,3 km/h (2 Bft)
30.07.2014 22:52 17,3 C 15,6 C 89 % 1014,9 hPa 0,0 l/m 0 min 0 min 0,0 UV-I 0 W/m 10,5 km/h (2 Bft)
30.07.2014 22:54 17,3 C 15,6 C 89 % 1014,9 hPa 0,0 l/m 0 min 0 min 0,0 UV-I 0 W/m 0,0 km/h (0 Bft)
30.07.2014 22:56 17,3 C 15,6 C 89 % 1014,9 hPa 0,0 l/m 0 min 0 min 0,0 UV-I 0 W/m 10,5 km/h (2 Bft)
30.07.2014 22:58 17,3 C 15,6 C 89 % 1014,9 hPa 0,0 l/m 0 min 0 min 0,0 UV-I 0 W/m 8,4 km/h (2 Bft)
30.07.2014 23:00 17,2 C 15,6 C 89 % 1015,0 hPa 0,0 l/m 0 min 0 min 0,0 UV-I 0 W/m 10,5 km/h (2 Bft)
30.07.2014 23:02 17,2 C 15,6 C 89 % 1015,0 hPa 0,0 l/m 0 min 0 min 0,0 UV-I 0 W/m 8,4 km/h (2 Bft)
30.07.2014 23:04 17,2 C 15,6 C 89 % 1015,0 hPa 0,0 l/m 0 min 0 min 0,0 UV-I 0 W/m 8,4 km/h (2 Bft)
30.07.2014 23:06 17,2 C 15,6 C 89 % 1015,0 hPa 0,0 l/m 0 min 0 min 0,0 UV-I 0 W/m 2,1 km/h (1 Bft)
30.07.2014 23:08 17,2 C 15,6 C 89 % 1015,0 hPa 0,0 l/m 0 min 0 min 0,0 UV-I 0 W/m 8,4 km/h (2 Bft)
30.07.2014 23:10 17,2 C 15,6 C 89 % 1014,9 hPa 0,0 l/m 0 min 0 min 0,0 UV-I 0 W/m 8,4 km/h (2 Bft)
30.07.2014 23:12 17,1 C 15,6 C 89 % 1014,9 hPa 0,0 l/m 0 min 0 min 0,0 UV-I 0 W/m 0,0 km/h (0 Bft)
30.07.2014 23:14 17,1 C 15,6 C 89 % 1015,0 hPa 0,0 l/m 0 min 0 min 0,0 UV-I 0 W/m 8,4 km/h (2 Bft)
30.07.2014 23:16 17,0 C 15,6 C 89 % 1015,0 hPa 0,0 l/m 0 min 0 min 0,0 UV-I 0 W/m 2,1 km/h (1 Bft)
30.07.2014 23:18 16,9 C 15,6 C 90 % 1014,9 hPa 0,0 l/m 0 min 0 min 0,0 UV-I 0 W/m 0,0 km/h (0 Bft)
30.07.2014 23:20 16,9 C 15,6 C 89 % 1015,0 hPa 0,0 l/m 0 min 0 min 0,0 UV-I 0 W/m 2,1 km/h (1 Bft)
30.07.2014 23:22 16,9 C 15,0 C 90 % 1015,0 hPa 0,0 l/m 0 min 0 min 0,0 UV-I 0 W/m 0,0 km/h (0 Bft)
30.07.2014 23:24 16,9 C 15,0 C 90 % 1015,0 hPa 0,0 l/m 0 min 0 min 0,0 UV-I 0 W/m 4,2 km/h (1 Bft)
30.07.2014 23:26 16,8 C 15,0 C 90 % 1015,1 hPa 0,0 l/m 0 min 0 min 0,0 UV-I 0 W/m 6,3 km/h (2 Bft)
30.07.2014 23:28 16,8 C 15,0 C 90 % 1015,0 hPa 0,0 l/m 0 min 0 min 0,0 UV-I 0 W/m 0,0 km/h (0 Bft)
30.07.2014 23:30 16,8 C 15,0 C 90 % 1015,0 hPa 0,0 l/m 0 min 0 min 0,0 UV-I 0 W/m 0,0 km/h (0 Bft)
30.07.2014 23:32 16,8 C 15,0 C 90 % 1015,1 hPa 0,0 l/m 0 min 0 min 0,0 UV-I 0 W/m 0,0 km/h (0 Bft)
30.07.2014 23:34 16,8 C 15,0 C 90 % 1015,2 hPa 0,0 l/m 0 min 0 min 0,0 UV-I 0 W/m 0,0 km/h (0 Bft)
30.07.2014 23:36 16,7 C 15,0 C 90 % 1015,2 hPa 0,0 l/m 0 min 0 min 0,0 UV-I 0 W/m 0,0 km/h (0 Bft)
30.07.2014 23:38 16,6 C 15,0 C 90 % 1015,1 hPa 0,0 l/m 0 min 0 min 0,0 UV-I 0 W/m 0,0 km/h (0 Bft)
30.07.2014 23:40 16,6 C 15,0 C 90 % 1015,3 hPa 0,0 l/m 0 min 0 min 0,0 UV-I 0 W/m 2,1 km/h (1 Bft)
30.07.2014 23:42 16,6 C 15,0 C 90 % 1015,2 hPa 0,0 l/m 0 min 0 min 0,0 UV-I 0 W/m 0,0 km/h (0 Bft)
30.07.2014 23:44 16,6 C 15,0 C 91 % 1015,3 hPa 0,0 l/m 0 min 0 min 0,0 UV-I 0 W/m 0,0 km/h (0 Bft)
30.07.2014 23:46 16,6 C 15,0 C 91 % 1015,3 hPa 0,0 l/m 0 min 0 min 0,0 UV-I 0 W/m 0,0 km/h (0 Bft)
30.07.2014 23:48 16,6 C 15,0 C 91 % 1015,3 hPa 0,0 l/m 0 min 0 min 0,0 UV-I 0 W/m 0,0 km/h (0 Bft)
30.07.2014 23:50 16,6 C 15,0 C 91 % 1015,3 hPa 0,0 l/m 0 min 0 min 0,0 UV-I 0 W/m 0,0 km/h (0 Bft)
30.07.2014 23:52 16,6 C 15,0 C 91 % 1015,4 hPa 0,0 l/m 0 min 0 min 0,0 UV-I 0 W/m 0,0 km/h (0 Bft)
30.07.2014 23:54 16,7 C 15,0 C 91 % 1015,4 hPa 0,0 l/m 0 min 0 min 0,0 UV-I 0 W/m 2,1 km/h (1 Bft)
30.07.2014 23:56 16,7 C 15,0 C 91 % 1015,4 hPa 0,0 l/m 0 min 0 min 0,0 UV-I 0 W/m 0,0 km/h (0 Bft)
30.07.2014 23:58 16,7 C 15,6 C 91 % 1015,3 hPa 0,0 l/m 0 min 0 min 0,0 UV-I 0 W/m 8,4 km/h (2 Bft)
_ Min-Zeit 06:32 23:22 16:32 00:56 - - - - - 07:18
Minimum _ 16,4 C 15,0 C 61 % 1009,9 hPa - - - - - 0,0 km/h (0 Bft)
_ Max-Zeit 16:36 16:30 00:00 23:52 00:00 08:14 00:00 13:16 14:46 16:38
Maximum _ 24,9 C 27,8 C 98 % 1015,4 hPa 0,0 l/m 2 min 0 min 5,5 UV-I 927 W/m 33,5 km/h
N-NW (5 Bft)
Durchschnitt _ 20,0 C 19,3 C 84 % 1012,1 hPa #0,0 l/m #6:22 h #0 min. 2,4 UV-I 309 W/m 13,7 km/h (3 Bft)
© 2014 W. Hausmann